Observation data for Dozier on 03/05/2021      Previous  Date  Next       Current Mesonet Observations  Soil Data  Daily Summary Page  Observations in Plain Language
KDO1 050600Z 31012KT 11/M02 A2985 RMK A01 T01131016  RH  041%=      5-min Rain = 0
KDO1 050601Z 31011KT 11/M02 A2985 RMK A01 T01131016  RH  041%=      5-min Rain = 0
KDO1 050602Z 31014KT 11/M02 A2985 RMK A01 T01131016  RH  041%=      5-min Rain = 0
KDO1 050603Z 31011G16KT 11/M02 A2985 RMK A01 T01131016  RH  041%=      5-min Rain = 0
KDO1 050604Z 31012KT 11/M02 A2985 RMK A01 T01131016  RH  041%=      5-min Rain = 0
KDO1 050605Z 30012G17KT 11/M02 A2985 RMK A01 T01131016  RH  041%=      5-min Rain = 0
KDO1 050606Z 30010G17KT 11/M02 A2985 RMK A01 T01131016  RH  041%=      5-min Rain = 0
KDO1 050607Z 30012G17KT 11/M02 A2985 RMK A01 T01131016  RH  041%=      5-min Rain = 0
KDO1 050608Z 30013KT 11/M02 A2985 RMK A01 T01121016  RH  041%=      5-min Rain = 0
KDO1 050609Z 30015G20KT 11/M02 A2985 RMK A01 T01121016  RH  041%=      5-min Rain = 0
KDO1 050610Z 31013KT 11/M02 A2985 RMK A01 T01121016  RH  041%=      5-min Rain = 0
KDO1 050611Z 30011G18KT 11/M02 A2985 RMK A01 T01121016  RH  041%=      5-min Rain = 0
KDO1 050612Z 30012KT 11/M02 A2985 RMK A01 T01121016  RH  041%=      5-min Rain = 0
KDO1 050613Z 31011KT 11/M02 A2985 RMK A01 T01111015  RH  041%=      5-min Rain = 0
KDO1 050614Z 30015KT 11/M02 A2985 RMK A01 T01111015  RH  042%=      5-min Rain = 0
KDO1 050615Z 30012G18KT 11/M02 A2985 RMK A01 T01111015  RH  041%=      5-min Rain = 0
KDO1 050616Z 31013G18KT 11/M02 A2985 RMK A01 T01111015  RH  041%=      5-min Rain = 0
KDO1 050617Z 30014KT 11/M02 A2985 RMK A01 T01101016  RH  042%=      5-min Rain = 0
KDO1 050618Z 30013KT 11/M02 A2985 RMK A01 T01111015  RH  042%=      5-min Rain = 0
KDO1 050619Z 31016KT 11/M02 A2985 RMK A01 T01111015  RH  042%=      5-min Rain = 0
KDO1 050620Z 30014G19KT 11/M01 A2985 RMK A01 T01111014  RH  042%=      5-min Rain = 0
KDO1 050621Z 31013G19KT 11/M01 A2985 RMK A01 T01111014  RH  042%=      5-min Rain = 0
KDO1 050622Z 31014G20KT 11/M01 A2985 RMK A01 T01121013  RH  042%=      5-min Rain = 0
KDO1 050623Z 30015KT 11/M01 A2985 RMK A01 T01111013  RH  042%=      5-min Rain = 0
KDO1 050624Z 30013G20KT 11/M01 A2985 RMK A01 T01121012  RH  042%=      5-min Rain = 0
KDO1 050625Z 31012G18KT 11/M01 A2985 RMK A01 T01121011  RH  042%=      5-min Rain = 0
KDO1 050626Z 31013KT 11/M01 A2985 RMK A01 T01111011  RH  043%=      5-min Rain = 0
KDO1 050627Z 31014KT 11/M01 A2985 RMK A01 T01111011  RH  043%=      5-min Rain = 0
KDO1 050628Z 31015KT 11/M01 A2985 RMK A01 T01111011  RH  043%=      5-min Rain = 0
KDO1 050629Z 31015KT 11/M01 A2985 RMK A01 T01111011  RH  043%=      5-min Rain = 0
KDO1 050630Z 31013KT 11/M01 A2985 RMK A01 T01111011  RH  043%=      5-min Rain = 0
KDO1 050631Z 31012KT 11/M01 A2985 RMK A01 T01111011  RH  043%=      5-min Rain = 0
KDO1 050632Z 31014KT 11/M01 A2985 RMK A01 T01111010  RH  043%=      5-min Rain = 0
KDO1 050633Z 31016G21KT 11/M01 A2985 RMK A01 T01111010  RH  043%=      5-min Rain = 0
KDO1 050634Z 31015KT 11/M01 A2985 RMK A01 T01111010  RH  043%=      5-min Rain = 0
KDO1 050635Z 31015KT 11/M01 A2985 RMK A01 T01111010  RH  043%=      5-min Rain = 0
KDO1 050636Z 31014G19KT 11/M01 A2985 RMK A01 T01111010  RH  043%=      5-min Rain = 0
KDO1 050637Z 31014KT 11/M01 A2985 RMK A01 T01111009  RH  043%=      5-min Rain = 0
KDO1 050638Z 32015KT 11/M01 A2985 RMK A01 T01111009  RH  043%=      5-min Rain = 0
KDO1 050639Z 31016KT 11/M01 A2985 RMK A01 T01101009  RH  044%=      5-min Rain = 0
KDO1 050640Z 32017KT 11/M01 A2985 RMK A01 T01101009  RH  044%=      5-min Rain = 0
KDO1 050641Z 32016G21KT 11/M01 A2985 RMK A01 T01101008  RH  044%=      5-min Rain = 0
KDO1 050642Z 31015KT 11/M01 A2985 RMK A01 T01101008  RH  044%=      5-min Rain = 0
KDO1 050643Z 31014KT 11/M01 A2986 RMK A01 T01101008  RH  044%=      5-min Rain = 0
KDO1 050644Z 31015KT 11/M01 A2986 RMK A01 T01091008  RH  044%=      5-min Rain = 0
KDO1 050645Z 32015KT 11/M01 A2986 RMK A01 T01081008  RH  044%=      5-min Rain = 0
KDO1 050646Z 31015KT 11/M01 A2986 RMK A01 T01081008  RH  045%=      5-min Rain = 0
KDO1 050647Z 32015KT 11/M01 A2986 RMK A01 T01071008  RH  045%=      5-min Rain = 0
KDO1 050648Z 32015KT 11/M01 A2986 RMK A01 T01071008  RH  045%=      5-min Rain = 0
KDO1 050649Z 33014KT 11/M01 A2986 RMK A01 T01071008  RH  045%=      5-min Rain = 0
KDO1 050650Z 32014KT 11/M01 A2986 RMK A01 T01061007  RH  045%=      5-min Rain = 0
KDO1 050651Z 33013KT 11/M01 A2986 RMK A01 T01051007  RH  046%=      5-min Rain = 0
KDO1 050652Z 33015KT 10/M01 A2986 RMK A01 T01041007  RH  046%=      5-min Rain = 0
KDO1 050653Z 32013KT 10/M01 A2986 RMK A01 T01041007  RH  046%=      5-min Rain = 0
KDO1 050654Z 32013KT 10/M01 A2986 RMK A01 T01041006  RH  046%=      5-min Rain = 0
KDO1 050655Z 32013KT 10/M01 A2986 RMK A01 T01031006  RH  046%=      5-min Rain = 0
KDO1 050656Z 32012KT 10/M01 A2986 RMK A01 T01031006  RH  047%=      5-min Rain = 0
KDO1 050657Z 32011KT 10/M01 A2986 RMK A01 T01031005  RH  047%=      5-min Rain = 0
KDO1 050658Z 33011KT 10/M01 A2986 RMK A01 T01021005  RH  047%=      5-min Rain = 0
KDO1 050659Z 33012KT 10/M01 A2986 RMK A01 T01021005  RH  048%=      5-min Rain = 0
KDO1 050700Z 33011KT 10/M00 A2986 RMK A01 T01021004  RH  048%=      5-min Rain = 0
KDO1 050701Z 34012KT 10/M00 A2986 RMK A01 T01021004  RH  048%=      5-min Rain = 0
KDO1 050702Z 33013KT 10/M00 A2987 RMK A01 T01021003  RH  048%=      5-min Rain = 0
KDO1 050703Z 33014KT 10/M00 A2987 RMK A01 T01021003  RH  048%=      5-min Rain = 0
KDO1 050704Z 33013KT 10/M00 A2987 RMK A01 T01021003  RH  048%=      5-min Rain = 0
KDO1 050705Z 33013KT 10/M00 A2987 RMK A01 T01021002  RH  048%=      5-min Rain = 0
KDO1 050706Z 33012KT 10/M00 A2987 RMK A01 T01021002  RH  049%=      5-min Rain = 0
KDO1 050707Z 33014KT 10/M00 A2987 RMK A01 T01021001  RH  049%=      5-min Rain = 0
KDO1 050708Z 33013KT 10/00 A2987 RMK A01 T010200-0  RH  049%=      5-min Rain = 0
KDO1 050709Z 33014KT 10/00 A2987 RMK A01 T01030000  RH  049%=      5-min Rain = 0
KDO1 050710Z 33013KT 10/00 A2987 RMK A01 T01030001  RH  049%=      5-min Rain = 0
KDO1 050711Z 33013KT 10/00 A2987 RMK A01 T01040002  RH  049%=      5-min Rain = 0
KDO1 050712Z 33011KT 10/00 A2987 RMK A01 T01030001  RH  049%=      5-min Rain = 0
KDO1 050713Z 33012KT 10/00 A2987 RMK A01 T01020002  RH  050%=      5-min Rain = 0
KDO1 050714Z 33012KT 10/00 A2987 RMK A01 T01010002  RH  050%=      5-min Rain = 0
KDO1 050715Z 33010KT 10/00 A2987 RMK A01 T01010002  RH  050%=      5-min Rain = 0
KDO1 050716Z 34011KT 10/00 A2987 RMK A01 T01010003  RH  051%=      5-min Rain = 0
KDO1 050717Z 34009KT 10/00 A2987 RMK A01 T01010003  RH  051%=      5-min Rain = 0
KDO1 050718Z 34009KT 10/00 A2987 RMK A01 T01000003  RH  051%=      5-min Rain = 0
KDO1 050719Z 34010KT 10/00 A2987 RMK A01 T01000004  RH  051%=      5-min Rain = 0
KDO1 050720Z 33011KT 10/01 A2987 RMK A01 T01000005  RH  052%=      5-min Rain = 0
KDO1 050721Z 32010KT 10/01 A2987 RMK A01 T01000006  RH  052%=      5-min Rain = 0
KDO1 050722Z 33011G16KT 10/01 A2987 RMK A01 T01000007  RH  052%=      5-min Rain = 0
KDO1 050723Z 32013KT 10/01 A2987 RMK A01 T01010009  RH  053%=      5-min Rain = 0
KDO1 050724Z 33014G19KT 10/01 A2987 RMK A01 T01030010  RH  053%=      5-min Rain = 0
KDO1 050725Z 33013G18KT 11/01 A2988 RMK A01 T01050011  RH  052%=      5-min Rain = 0
KDO1 050726Z 33012KT 11/01 A2988 RMK A01 T01050011  RH  052%=      5-min Rain = 0
KDO1 050727Z 33012KT 11/01 A2988 RMK A01 T01050011  RH  052%=      5-min Rain = 0
KDO1 050728Z 32012KT 11/01 A2988 RMK A01 T01060011  RH  052%=      5-min Rain = 0
KDO1 050729Z 32013KT 11/01 A2988 RMK A01 T01050010  RH  052%=      5-min Rain = 0
KDO1 050730Z 33011KT 11/01 A2988 RMK A01 T01050010  RH  052%=      5-min Rain = 0
KDO1 050731Z 32012KT 11/01 A2988 RMK A01 T01050010  RH  052%=      5-min Rain = 0
KDO1 050732Z 33012KT 10/01 A2988 RMK A01 T01040010  RH  052%=      5-min Rain = 0
KDO1 050733Z 32014KT 10/01 A2988 RMK A01 T01030010  RH  052%=      5-min Rain = 0
KDO1 050734Z 33012KT 10/01 A2988 RMK A01 T01040011  RH  052%=      5-min Rain = 0
KDO1 050735Z 32012G17KT 10/01 A2988 RMK A01 T01040011  RH  052%=      5-min Rain = 0
KDO1 050736Z 33014KT 10/01 A2988 RMK A01 T01030011  RH  053%=      5-min Rain = 0
KDO1 050737Z 33012KT 10/01 A2988 RMK A01 T01030011  RH  053%=      5-min Rain = 0
KDO1 050738Z 33013G18KT 10/01 A2988 RMK A01 T01020011  RH  053%=      5-min Rain = 0
KDO1 050739Z 34014KT 10/01 A2988 RMK A01 T01030013  RH  053%=      5-min Rain = 0
KDO1 050740Z 34013KT 10/01 A2988 RMK A01 T01040013  RH  053%=      5-min Rain = 0
KDO1 050741Z 34011G16KT 11/01 A2988 RMK A01 T01050013  RH  053%=      5-min Rain = 0
KDO1 050742Z 34015KT 11/01 A2988 RMK A01 T01050013  RH  053%=      5-min Rain = 0
KDO1 050743Z 33012KT 11/01 A2989 RMK A01 T01050014  RH  053%=      5-min Rain = 0
KDO1 050744Z 33014KT 11/01 A2989 RMK A01 T01050013  RH  053%=      5-min Rain = 0
KDO1 050745Z 34012KT 11/01 A2989 RMK A01 T01050014  RH  053%=      5-min Rain = 0
KDO1 050746Z 33014KT 10/01 A2989 RMK A01 T01040014  RH  053%=      5-min Rain = 0
KDO1 050747Z 33014KT 10/01 A2989 RMK A01 T01040014  RH  053%=      5-min Rain = 0
KDO1 050748Z 34013KT 11/01 A2989 RMK A01 T01050014  RH  053%=      5-min Rain = 0
KDO1 050749Z 34012KT 11/01 A2989 RMK A01 T01050014  RH  053%=      5-min Rain = 0
KDO1 050750Z 34012KT 10/01 A2989 RMK A01 T01040014  RH  054%=      5-min Rain = 0
KDO1 050751Z 34012KT 10/01 A2989 RMK A01 T01030014  RH  054%=      5-min Rain = 0
KDO1 050752Z 34012KT 10/01 A2989 RMK A01 T01020014  RH  054%=      5-min Rain = 0
KDO1 050753Z 34010KT 10/01 A2989 RMK A01 T01020014  RH  054%=      5-min Rain = 0
KDO1 050754Z 34010KT 10/01 A2989 RMK A01 T01010013  RH  054%=      5-min Rain = 0
KDO1 050755Z 34011KT 10/01 A2989 RMK A01 T01000013  RH  055%=      5-min Rain = 0
KDO1 050756Z 34010KT 10/01 A2989 RMK A01 T01000013  RH  055%=      5-min Rain = 0
KDO1 050757Z 34012KT 10/01 A2989 RMK A01 T00990013  RH  055%=      5-min Rain = 0
KDO1 050758Z 34010KT 10/01 A2989 RMK A01 T00990013  RH  055%=      5-min Rain = 0
KDO1 050759Z 34009KT 10/01 A299 RMK A01 T00990013  RH  055%=      5-min Rain = 0
KDO1 050800Z 34010KT 10/01 A299 RMK A01 T00980012  RH  055%=      5-min Rain = 0
KDO1 050801Z 34009KT 10/01 A299 RMK A01 T00980012  RH  055%=      5-min Rain = 0
KDO1 050802Z 34009KT 10/01 A299 RMK A01 T00980013  RH  055%=      5-min Rain = 0
KDO1 050803Z 34010KT 10/01 A299 RMK A01 T00970013  RH  055%=      5-min Rain = 0
KDO1 050804Z 33010KT 10/01 A299 RMK A01 T00970012  RH  055%=      5-min Rain = 0
KDO1 050805Z 34009KT 10/01 A299 RMK A01 T00970012  RH  055%=      5-min Rain = 0
KDO1 050806Z 35009KT 10/01 A299 RMK A01 T00970012  RH  056%=      5-min Rain = 0
KDO1 050807Z 35008KT 10/01 A299 RMK A01 T00960012  RH  056%=      5-min Rain = 0
KDO1 050808Z 36008KT 10/01 A299 RMK A01 T00960012  RH  056%=      5-min Rain = 0
KDO1 050809Z 01007KT 09/01 A299 RMK A01 T00940010  RH  056%=      5-min Rain = 0
KDO1 050810Z 00007KT 09/01 A299 RMK A01 T00920009  RH  056%=      5-min Rain = 0
KDO1 050811Z 01008KT 09/01 A299 RMK A01 T00900008  RH  057%=      5-min Rain = 0
KDO1 050812Z 00007KT 09/01 A299 RMK A01 T00880007  RH  057%=      5-min Rain = 0
KDO1 050813Z 36008KT 09/01 A299 RMK A01 T00870007  RH  057%=      5-min Rain = 0
KDO1 050814Z 36008KT 09/01 A299 RMK A01 T00860006  RH  057%=      5-min Rain = 0
KDO1 050815Z 00008KT 09/01 A299 RMK A01 T00860006  RH  057%=      5-min Rain = 0
KDO1 050816Z 36008KT 09/01 A299 RMK A01 T00850006  RH  058%=      5-min Rain = 0
KDO1 050817Z 01009KT 08/01 A299 RMK A01 T00840006  RH  058%=      5-min Rain = 0
KDO1 050818Z 01007KT 09/01 A299 RMK A01 T00850006  RH  058%=      5-min Rain = 0
KDO1 050819Z 02007KT 09/01 A299 RMK A01 T00860006  RH  057%=      5-min Rain = 0
KDO1 050820Z 01007KT 09/01 A299 RMK A01 T00850005  RH  057%=      5-min Rain = 0
KDO1 050821Z 01008KT 08/01 A299 RMK A01 T00830005  RH  058%=      5-min Rain = 0
KDO1 050822Z 00009KT 08/01 A299 RMK A01 T00830006  RH  058%=      5-min Rain = 0
KDO1 050823Z 00009KT 08/01 A299 RMK A01 T00820007  RH  059%=      5-min Rain = 0
KDO1 050824Z 35010KT 08/01 A299 RMK A01 T00830008  RH  059%=      5-min Rain = 0
KDO1 050825Z 35009KT 08/01 A299 RMK A01 T00830009  RH  059%=      5-min Rain = 0
KDO1 050826Z 34008KT 08/01 A299 RMK A01 T00840009  RH  059%=      5-min Rain = 0
KDO1 050827Z 34008KT 08/01 A299 RMK A01 T00840009  RH  059%=      5-min Rain = 0
KDO1 050828Z 33008KT 08/01 A299 RMK A01 T00840010  RH  060%=      5-min Rain = 0
KDO1 050829Z 34009KT 09/01 A299 RMK A01 T00850011  RH  060%=      5-min Rain = 0
KDO1 050830Z 34009KT 09/01 A299 RMK A01 T00850011  RH  060%=      5-min Rain = 0
KDO1 050831Z 33009KT 09/01 A299 RMK A01 T00850011  RH  059%=      5-min Rain = 0
KDO1 050832Z 33008KT 09/01 A299 RMK A01 T00850011  RH  059%=      5-min Rain = 0
KDO1 050833Z 34009KT 09/01 A299 RMK A01 T00850011  RH  060%=      5-min Rain = 0
KDO1 050834Z 34008KT 09/01 A299 RMK A01 T00860012  RH  060%=      5-min Rain = 0
KDO1 050835Z 33008KT 09/01 A299 RMK A01 T00870012  RH  060%=      5-min Rain = 0
KDO1 050836Z 33008KT 09/01 A299 RMK A01 T00870013  RH  060%=      5-min Rain = 0
KDO1 050837Z 34009KT 09/01 A299 RMK A01 T00860013  RH  060%=      5-min Rain = 0
KDO1 050838Z 33010KT 09/01 A2991 RMK A01 T00860014  RH  060%=      5-min Rain = 0
KDO1 050839Z 33010KT 09/01 A2991 RMK A01 T00860014  RH  061%=      5-min Rain = 0
KDO1 050840Z 34010KT 09/02 A2991 RMK A01 T00870015  RH  060%=      5-min Rain = 0
KDO1 050841Z 34011KT 09/02 A2991 RMK A01 T00880015  RH  060%=      5-min Rain = 0
KDO1 050842Z 34011KT 09/02 A2991 RMK A01 T00880015  RH  060%=      5-min Rain = 0
KDO1 050843Z 33012KT 09/02 A2991 RMK A01 T00880015  RH  060%=      5-min Rain = 0
KDO1 050844Z 33013KT 09/02 A2991 RMK A01 T00870015  RH  061%=      5-min Rain = 0
KDO1 050845Z 33011KT 09/02 A2991 RMK A01 T00890016  RH  060%=      5-min Rain = 0
KDO1 050846Z 33011KT 09/02 A2991 RMK A01 T00890016  RH  060%=      5-min Rain = 0
KDO1 050847Z 33012KT 09/02 A2991 RMK A01 T00890016  RH  060%=      5-min Rain = 0
KDO1 050848Z 33013KT 09/02 A2991 RMK A01 T00890016  RH  060%=      5-min Rain = 0
KDO1 050849Z 33011KT 09/02 A2991 RMK A01 T00880017  RH  061%=      5-min Rain = 0
KDO1 050850Z 33012KT 09/02 A2991 RMK A01 T00880017  RH  061%=      5-min Rain = 0
KDO1 050851Z 33014KT 09/02 A2991 RMK A01 T00880017  RH  061%=      5-min Rain = 0
KDO1 050852Z 33012KT 09/02 A2991 RMK A01 T00880018  RH  061%=      5-min Rain = 0
KDO1 050853Z 33014KT 09/02 A2991 RMK A01 T00870018  RH  062%=      5-min Rain = 0
KDO1 050854Z 33013KT 09/02 A2991 RMK A01 T00870019  RH  062%=      5-min Rain = 0
KDO1 050855Z 33012KT 09/02 A2991 RMK A01 T00870019  RH  062%=      5-min Rain = 0
KDO1 050856Z 33015KT 09/02 A2991 RMK A01 T00880020  RH  062%=      5-min Rain = 0
KDO1 050857Z 33014G19KT 09/02 A2991 RMK A01 T00880020  RH  062%=      5-min Rain = 0
KDO1 050858Z 33014KT 09/02 A2991 RMK A01 T00880020  RH  062%=      5-min Rain = 0
KDO1 050859Z 34012KT 09/02 A2991 RMK A01 T00880020  RH  062%=      5-min Rain = 0
KDO1 050900Z 34012G17KT 09/02 A2991 RMK A01 T00870020  RH  063%=      5-min Rain = 0
KDO1 050901Z 33015KT 09/02 A2991 RMK A01 T00870020  RH  063%=      5-min Rain = 0
KDO1 050902Z 33017KT 09/02 A2991 RMK A01 T00860020  RH  063%=      5-min Rain = 0
KDO1 050903Z 33016KT 09/02 A2991 RMK A01 T00870020  RH  063%=      5-min Rain = 0
KDO1 050904Z 33016KT 09/02 A2991 RMK A01 T00880020  RH  062%=      5-min Rain = 0
KDO1 050905Z 33015KT 09/02 A2991 RMK A01 T00880020  RH  062%=      5-min Rain = 0
KDO1 050906Z 33014KT 09/02 A2991 RMK A01 T00880020  RH  062%=      5-min Rain = 0
KDO1 050907Z 33012KT 09/02 A2992 RMK A01 T00870020  RH  063%=      5-min Rain = 0
KDO1 050908Z 33013KT 09/02 A2992 RMK A01 T00860020  RH  063%=      5-min Rain = 0
KDO1 050909Z 34011KT 09/02 A2992 RMK A01 T00860020  RH  063%=      5-min Rain = 0
KDO1 050910Z 33011KT 09/02 A2992 RMK A01 T00850020  RH  064%=      5-min Rain = 0
KDO1 050911Z 34013KT 09/02 A2992 RMK A01 T00850020  RH  064%=      5-min Rain = 0
KDO1 050912Z 34012KT 09/02 A2992 RMK A01 T00850020  RH  064%=      5-min Rain = 0
KDO1 050913Z 34010KT 09/02 A2992 RMK A01 T00860021  RH  064%=      5-min Rain = 0
KDO1 050914Z 34012KT 09/02 A2992 RMK A01 T00850020  RH  064%=      5-min Rain = 0
KDO1 050915Z 34013G19KT 09/02 A2992 RMK A01 T00850021  RH  064%=      5-min Rain = 0
KDO1 050916Z 34012KT 09/02 A2992 RMK A01 T00850021  RH  064%=      5-min Rain = 0
KDO1 050917Z 33013KT 09/02 A2992 RMK A01 T00850021  RH  064%=      5-min Rain = 0
KDO1 050918Z 34013G20KT 09/02 A2992 RMK A01 T00850021  RH  064%=      5-min Rain = 0
KDO1 050919Z 34015KT 09/02 A2992 RMK A01 T00850022  RH  064%=      5-min Rain = 0
KDO1 050920Z 34014KT 09/02 A2992 RMK A01 T00860022  RH  064%=      5-min Rain = 0
KDO1 050921Z 33015KT 09/02 A2992 RMK A01 T00860022  RH  064%=      5-min Rain = 0
KDO1 050922Z 33016KT 09/02 A2992 RMK A01 T00860023  RH  064%=      5-min Rain = 0
KDO1 050923Z 34014KT 09/02 A2991 RMK A01 T00860023  RH  064%=      5-min Rain = 0
KDO1 050924Z 33014KT 09/02 A2991 RMK A01 T00860023  RH  064%=      5-min Rain = 0
KDO1 050925Z 34012KT 09/02 A2991 RMK A01 T00850023  RH  065%=      5-min Rain = 0
KDO1 050926Z 34014KT 09/02 A2991 RMK A01 T00850023  RH  065%=      5-min Rain = 0
KDO1 050927Z 34015KT 09/02 A2991 RMK A01 T00850023  RH  065%=      5-min Rain = 0
KDO1 050928Z 34012KT 08/02 A2991 RMK A01 T00840023  RH  065%=      5-min Rain = 0
KDO1 050929Z 33013KT 08/02 A2991 RMK A01 T00840023  RH  065%=      5-min Rain = 0
KDO1 050930Z 34014KT 08/02 A2991 RMK A01 T00830023  RH  066%=      5-min Rain = 0
KDO1 050931Z 34013KT 08/02 A2991 RMK A01 T00830023  RH  066%=      5-min Rain = 0
KDO1 050932Z 34015KT 08/02 A2991 RMK A01 T00830023  RH  066%=      5-min Rain = 0
KDO1 050933Z 33013KT 08/02 A2992 RMK A01 T00830023  RH  066%=      5-min Rain = 0
KDO1 050934Z 33012KT 08/02 A2992 RMK A01 T00830024  RH  066%=      5-min Rain = 0
KDO1 050935Z 33012KT 08/02 A2992 RMK A01 T00820023  RH  066%=      5-min Rain = 0
KDO1 050936Z 32012KT 08/02 A2992 RMK A01 T00810023  RH  067%=      5-min Rain = 0
KDO1 050937Z 32011KT 08/02 A2992 RMK A01 T00800023  RH  067%=      5-min Rain = 0
KDO1 050938Z 32012KT 08/02 A2992 RMK A01 T00800023  RH  067%=      5-min Rain = 0
KDO1 050939Z 32013KT 08/02 A2992 RMK A01 T00800023  RH  067%=      5-min Rain = 0
KDO1 050940Z 32012KT 08/02 A2992 RMK A01 T00790023  RH  067%=      5-min Rain = 0
KDO1 050941Z 32012KT 08/02 A2992 RMK A01 T00790022  RH  068%=      5-min Rain = 0
KDO1 050942Z 32013KT 08/02 A2992 RMK A01 T00780022  RH  068%=      5-min Rain = 0
KDO1 050943Z 32012KT 08/02 A2992 RMK A01 T00770022  RH  068%=      5-min Rain = 0
KDO1 050944Z 32011KT 08/02 A2992 RMK A01 T00760021  RH  068%=      5-min Rain = 0
KDO1 050945Z 32012KT 08/02 A2992 RMK A01 T00750021  RH  068%=      5-min Rain = 0
KDO1 050946Z 32013KT 08/02 A2992 RMK A01 T00750021  RH  069%=      5-min Rain = 0
KDO1 050947Z 33011KT 08/02 A2992 RMK A01 T00750021  RH  069%=      5-min Rain = 0
KDO1 050948Z 32012KT 08/02 A2992 RMK A01 T00750021  RH  069%=      5-min Rain = 0
KDO1 050949Z 32012KT 08/02 A2992 RMK A01 T00750021  RH  069%=      5-min Rain = 0
KDO1 050950Z 33013KT 08/02 A2992 RMK A01 T00750021  RH  069%=      5-min Rain = 0
KDO1 050951Z 33013KT 08/02 A2992 RMK A01 T00750021  RH  069%=      5-min Rain = 0
KDO1 050952Z 33013KT 08/02 A2992 RMK A01 T00750021  RH  069%=      5-min Rain = 0
KDO1 050953Z 33013KT 08/02 A2992 RMK A01 T00750022  RH  069%=      5-min Rain = 0
KDO1 050954Z 32014KT 08/02 A2992 RMK A01 T00750022  RH  069%=      5-min Rain = 0
KDO1 050955Z 33012KT 08/02 A2992 RMK A01 T00750022  RH  069%=      5-min Rain = 0
KDO1 050956Z 33013KT 08/02 A2992 RMK A01 T00750022  RH  069%=      5-min Rain = 0
KDO1 050957Z 33012KT 07/02 A2992 RMK A01 T00740022  RH  069%=      5-min Rain = 0
KDO1 050958Z 33013KT 07/02 A2992 RMK A01 T00740022  RH  070%=      5-min Rain = 0
KDO1 050959Z 33012KT 07/02 A2992 RMK A01 T00740022  RH  070%=      5-min Rain = 0
KDO1 051000Z 33012KT 07/02 A2992 RMK A01 T00740022  RH  070%=      5-min Rain = 0
KDO1 051001Z 33013KT 07/02 A2992 RMK A01 T00740022  RH  070%=      5-min Rain = 0
KDO1 051002Z 33011KT 07/02 A2992 RMK A01 T00740022  RH  070%=      5-min Rain = 0
KDO1 051003Z 33012KT 07/02 A2992 RMK A01 T00740023  RH  070%=      5-min Rain = 0
KDO1 051004Z 33013KT 07/02 A2992 RMK A01 T00740023  RH  070%=      5-min Rain = 0
KDO1 051005Z 33013KT 07/02 A2992 RMK A01 T00740024  RH  070%=      5-min Rain = 0
KDO1 051006Z 33012KT 07/02 A2992 RMK A01 T00740024  RH  070%=      5-min Rain = 0
KDO1 051007Z 32011G16KT 07/02 A2992 RMK A01 T00740024  RH  070%=      5-min Rain = 0
KDO1 051008Z 33010KT 08/02 A2992 RMK A01 T00750024  RH  070%=      5-min Rain = 0
KDO1 051009Z 33011KT 08/02 A2992 RMK A01 T00750024  RH  070%=      5-min Rain = 0
KDO1 051010Z 33012KT 07/02 A2992 RMK A01 T00740024  RH  070%=      5-min Rain = 0
KDO1 051011Z 33011KT 07/02 A2992 RMK A01 T00740024  RH  071%=      5-min Rain = 0
KDO1 051012Z 33010KT 07/02 A2992 RMK A01 T00740024  RH  070%=      5-min Rain = 0
KDO1 051013Z 33010KT 08/02 A2992 RMK A01 T00750024  RH  070%=      5-min Rain = 0
KDO1 051014Z 34010KT 08/03 A2992 RMK A01 T00750025  RH  070%=      5-min Rain = 0
KDO1 051015Z 33009KT 08/03 A2992 RMK A01 T00750025  RH  071%=      5-min Rain = 0
KDO1 051016Z 33009KT 07/03 A2992 RMK A01 T00740025  RH  071%=      5-min Rain = 0
KDO1 051017Z 33011KT 07/03 A2992 RMK A01 T00740025  RH  071%=      5-min Rain = 0
KDO1 051018Z 33010KT 07/03 A2992 RMK A01 T00740026  RH  071%=      5-min Rain = 0
KDO1 051019Z 34009KT 08/03 A2993 RMK A01 T00750026  RH  071%=      5-min Rain = 0
KDO1 051020Z 33009KT 08/03 A2993 RMK A01 T00750026  RH  071%=      5-min Rain = 0
KDO1 051021Z 34009KT 08/03 A2993 RMK A01 T00750026  RH  071%=      5-min Rain = 0
KDO1 051022Z 34008KT 07/03 A2993 RMK A01 T00740025  RH  071%=      5-min Rain = 0
KDO1 051023Z 34008KT 07/03 A2993 RMK A01 T00730025  RH  072%=      5-min Rain = 0
KDO1 051024Z 34009KT 07/03 A2993 RMK A01 T00720025  RH  072%=      5-min Rain = 0
KDO1 051025Z 33009KT 07/03 A2993 RMK A01 T00720026  RH  072%=      5-min Rain = 0
KDO1 051026Z 34009KT 07/03 A2993 RMK A01 T00720026  RH  072%=      5-min Rain = 0
KDO1 051027Z 34008KT 07/03 A2993 RMK A01 T00720026  RH  073%=      5-min Rain = 0
KDO1 051028Z 34008KT 07/03 A2993 RMK A01 T00710026  RH  073%=      5-min Rain = 0
KDO1 051029Z 34008KT 07/03 A2993 RMK A01 T00710026  RH  073%=      5-min Rain = 0
KDO1 051030Z 34009KT 07/03 A2993 RMK A01 T00710026  RH  073%=      5-min Rain = 0
KDO1 051031Z 34008KT 07/03 A2993 RMK A01 T00710026  RH  073%=      5-min Rain = 0
KDO1 051032Z 34008KT 07/03 A2993 RMK A01 T00710026  RH  073%=      5-min Rain = 0
KDO1 051033Z 34008KT 07/03 A2993 RMK A01 T00700026  RH  073%=      5-min Rain = 0
KDO1 051034Z 34007KT 07/03 A2993 RMK A01 T00700026  RH  074%=      5-min Rain = 0
KDO1 051035Z 33006KT 07/03 A2993 RMK A01 T00700026  RH  074%=      5-min Rain = 0
KDO1 051036Z 33007KT 07/03 A2993 RMK A01 T00690026  RH  074%=      5-min Rain = 0
KDO1 051037Z 34007KT 07/03 A2993 RMK A01 T00690026  RH  074%=      5-min Rain = 0
KDO1 051038Z 34007KT 07/03 A2993 RMK A01 T00690025  RH  074%=      5-min Rain = 0
KDO1 051039Z 34007KT 07/03 A2993 RMK A01 T00680025  RH  074%=      5-min Rain = 0
KDO1 051040Z 35008KT 07/03 A2993 RMK A01 T00680025  RH  074%=      5-min Rain = 0
KDO1 051041Z 34007KT 07/03 A2993 RMK A01 T00670026  RH  075%=      5-min Rain = 0
KDO1 051042Z 34007KT 07/03 A2993 RMK A01 T00670026  RH  075%=      5-min Rain = 0
KDO1 051043Z 34007KT 07/03 A2993 RMK A01 T00670026  RH  075%=      5-min Rain = 0
KDO1 051044Z 34007KT 07/03 A2993 RMK A01 T00670026  RH  075%=      5-min Rain = 0
KDO1 051045Z 34007KT 07/03 A2993 RMK A01 T00670026  RH  075%=      5-min Rain = 0
KDO1 051046Z 34007KT 07/03 A2994 RMK A01 T00670026  RH  075%=      5-min Rain = 0
KDO1 051047Z 34007KT 07/03 A2994 RMK A01 T00670026  RH  075%=      5-min Rain = 0
KDO1 051048Z 34008KT 07/03 A2994 RMK A01 T00670026  RH  075%=      5-min Rain = 0
KDO1 051049Z 34008KT 07/03 A2994 RMK A01 T00670027  RH  075%=      5-min Rain = 0
KDO1 051050Z 35007KT 07/03 A2994 RMK A01 T00670027  RH  075%=      5-min Rain = 0
KDO1 051051Z 36007KT 07/03 A2994 RMK A01 T00670027  RH  075%=      5-min Rain = 0
KDO1 051052Z 36007KT 07/03 A2994 RMK A01 T00660026  RH  076%=      5-min Rain = 0
KDO1 051053Z 00006KT 07/03 A2994 RMK A01 T00660026  RH  076%=      5-min Rain = 0
KDO1 051054Z 35007KT 07/03 A2994 RMK A01 T00650026  RH  076%=      5-min Rain = 0
KDO1 051055Z 35008KT 06/03 A2994 RMK A01 T00640026  RH  076%=      5-min Rain = 0
KDO1 051056Z 35008KT 06/03 A2994 RMK A01 T00640026  RH  076%=      5-min Rain = 0
KDO1 051057Z 35008KT 06/03 A2994 RMK A01 T00630025  RH  077%=      5-min Rain = 0
KDO1 051058Z 35008KT 06/02 A2994 RMK A01 T00620024  RH  077%=      5-min Rain = 0
KDO1 051059Z 35008KT 06/02 A2994 RMK A01 T00610024  RH  077%=      5-min Rain = 0
KDO1 051100Z 35008KT 06/02 A2994 RMK A01 T00600024  RH  078%=      5-min Rain = 0
KDO1 051101Z 35009KT 06/03 A2994 RMK A01 T00600025  RH  078%=      5-min Rain = 0
KDO1 051102Z 35008KT 06/03 A2994 RMK A01 T00600025  RH  078%=      5-min Rain = 0
KDO1 051103Z 35007KT 06/02 A2994 RMK A01 T00590024  RH  078%=      5-min Rain = 0
KDO1 051104Z 35009KT 06/02 A2994 RMK A01 T00580024  RH  079%=      5-min Rain = 0
KDO1 051105Z 35010KT 06/03 A2994 RMK A01 T00580025  RH  079%=      5-min Rain = 0
KDO1 051106Z 34009KT 06/03 A2994 RMK A01 T00580025  RH  079%=      5-min Rain = 0
KDO1 051107Z 35009KT 06/03 A2994 RMK A01 T00580026  RH  079%=      5-min Rain = 0
KDO1 051108Z 35008KT 06/03 A2994 RMK A01 T00590026  RH  079%=      5-min Rain = 0
KDO1 051109Z 35008KT 06/03 A2995 RMK A01 T00590026  RH  079%=      5-min Rain = 0
KDO1 051110Z 35010KT 06/03 A2995 RMK A01 T00590026  RH  079%=      5-min Rain = 0
KDO1 051111Z 36010KT 06/03 A2995 RMK A01 T00590027  RH  080%=      5-min Rain = 0
KDO1 051112Z 35010KT 06/03 A2995 RMK A01 T00600027  RH  080%=      5-min Rain = 0
KDO1 051113Z 36010KT 06/03 A2995 RMK A01 T00610028  RH  080%=      5-min Rain = 0
KDO1 051114Z 36009KT 06/03 A2995 RMK A01 T00610028  RH  079%=      5-min Rain = 0
KDO1 051115Z 35009KT 06/03 A2995 RMK A01 T00610027  RH  079%=      5-min Rain = 0
KDO1 051116Z 35009KT 06/03 A2995 RMK A01 T00610027  RH  079%=      5-min Rain = 0
KDO1 051117Z 35009KT 06/03 A2995 RMK A01 T00600027  RH  079%=      5-min Rain = 0
KDO1 051118Z 35010KT 06/03 A2995 RMK A01 T00610027  RH  079%=      5-min Rain = 0
KDO1 051119Z 34008KT 06/03 A2995 RMK A01 T00600027  RH  079%=      5-min Rain = 0
KDO1 051120Z 34009KT 06/03 A2995 RMK A01 T00610027  RH  079%=      5-min Rain = 0
KDO1 051121Z 34008KT 06/03 A2995 RMK A01 T00610027  RH  079%=      5-min Rain = 0
KDO1 051122Z 33008KT 06/03 A2995 RMK A01 T00610028  RH  079%=      5-min Rain = 0
KDO1 051123Z 34009KT 06/03 A2995 RMK A01 T00620028  RH  079%=      5-min Rain = 0
KDO1 051124Z 34009KT 06/03 A2995 RMK A01 T00630029  RH  079%=      5-min Rain = 0
KDO1 051125Z 33009KT 06/03 A2995 RMK A01 T00630030  RH  079%=      5-min Rain = 0
KDO1 051126Z 34010KT 06/03 A2995 RMK A01 T00630030  RH  079%=      5-min Rain = 0
KDO1 051127Z 33009KT 06/03 A2995 RMK A01 T00630031  RH  080%=      5-min Rain = 0
KDO1 051128Z 33010KT 07/03 A2995 RMK A01 T00650032  RH  080%=      5-min Rain = 0
KDO1 051129Z 33009KT 07/03 A2995 RMK A01 T00650033  RH  080%=      5-min Rain = 0
KDO1 051130Z 33010KT 07/03 A2995 RMK A01 T00660033  RH  079%=      5-min Rain = 0
KDO1 051131Z 33009KT 07/03 A2995 RMK A01 T00670034  RH  079%=      5-min Rain = 0
KDO1 051132Z 33008KT 07/03 A2995 RMK A01 T00670034  RH  080%=      5-min Rain = 0
KDO1 051133Z 33008KT 07/03 A2995 RMK A01 T00660033  RH  079%=      5-min Rain = 0
KDO1 051134Z 33009KT 07/03 A2995 RMK A01 T00650033  RH  080%=      5-min Rain = 0
KDO1 051135Z 33008KT 07/03 A2995 RMK A01 T00650034  RH  080%=      5-min Rain = 0
KDO1 051136Z 33008KT 07/03 A2995 RMK A01 T00650034  RH  080%=      5-min Rain = 0
KDO1 051137Z 33008KT 07/03 A2995 RMK A01 T00660034  RH  080%=      5-min Rain = 0
KDO1 051138Z 33007KT 07/03 A2995 RMK A01 T00660034  RH  080%=      5-min Rain = 0
KDO1 051139Z 33007KT 07/04 A2995 RMK A01 T00660035  RH  081%=      5-min Rain = 0
KDO1 051140Z 33007KT 07/04 A2995 RMK A01 T00660035  RH  081%=      5-min Rain = 0
KDO1 051141Z 33007KT 07/04 A2995 RMK A01 T00660035  RH  081%=      5-min Rain = 0
KDO1 051142Z 32007KT 07/04 A2995 RMK A01 T00670035  RH  080%=      5-min Rain = 0
KDO1 051143Z 32006KT 07/03 A2995 RMK A01 T00650034  RH  080%=      5-min Rain = 0
KDO1 051144Z 32006KT 06/03 A2995 RMK A01 T00640032  RH  080%=      5-min Rain = 0
KDO1 051145Z 32006KT 06/03 A2995 RMK A01 T00620032  RH  081%=      5-min Rain = 0
KDO1 051146Z 33006KT 06/03 A2996 RMK A01 T00620033  RH  081%=      5-min Rain = 0
KDO1 051147Z 33007KT 06/03 A2996 RMK A01 T00610031  RH  081%=      5-min Rain = 0
KDO1 051148Z 33007KT 06/03 A2996 RMK A01 T00600031  RH  082%=      5-min Rain = 0
KDO1 051149Z 33008KT 06/03 A2996 RMK A01 T00590031  RH  082%=      5-min Rain = 0
KDO1 051150Z 34008KT 06/03 A2996 RMK A01 T00590032  RH  083%=      5-min Rain = 0
KDO1 051151Z 33008KT 06/03 A2996 RMK A01 T00590033  RH  083%=      5-min Rain = 0
KDO1 051152Z 33009KT 06/03 A2996 RMK A01 T00590034  RH  084%=      5-min Rain = 0
KDO1 051153Z 33009KT 06/03 A2996 RMK A01 T00600034  RH  084%=      5-min Rain = 0
KDO1 051154Z 33008KT 06/04 A2996 RMK A01 T00610035  RH  084%=      5-min Rain = 0
KDO1 051155Z 34009KT 06/04 A2996 RMK A01 T00610036  RH  084%=      5-min Rain = 0
KDO1 051156Z 34009KT 06/04 A2996 RMK A01 T00620037  RH  084%=      5-min Rain = 0
KDO1 051157Z 34009KT 06/04 A2996 RMK A01 T00630038  RH  084%=      5-min Rain = 0
KDO1 051158Z 34009KT 06/04 A2996 RMK A01 T00640039  RH  084%=      5-min Rain = 0
KDO1 051159Z 34010KT 07/04 A2996 RMK A01 T00650039  RH  084%=      5-min Rain = 0
KDO1 051200Z 34009KT 07/04 A2997 RMK A01 T00660040  RH  084%=      5-min Rain = 0
KDO1 051201Z 34010KT 07/04 A2997 RMK A01 T00670041  RH  084%=      5-min Rain = 0
KDO1 051202Z 34009KT 07/04 A2997 RMK A01 T00680042  RH  083%=      5-min Rain = 0
KDO1 051203Z 34010KT 07/04 A2997 RMK A01 T00690042  RH  083%=      5-min Rain = 0
KDO1 051204Z 34010KT 07/04 A2997 RMK A01 T00690042  RH  083%=      5-min Rain = 0
KDO1 051205Z 34011KT 07/04 A2997 RMK A01 T00690042  RH  083%=      5-min Rain = 0
KDO1 051206Z 34011KT 07/04 A2997 RMK A01 T00700043  RH  083%=      5-min Rain = 0
KDO1 051207Z 34010KT 07/04 A2997 RMK A01 T00700042  RH  083%=      5-min Rain = 0
KDO1 051208Z 34011KT 07/04 A2997 RMK A01 T00690042  RH  082%=      5-min Rain = 0
KDO1 051209Z 34012KT 07/04 A2997 RMK A01 T00700042  RH  083%=      5-min Rain = 0
KDO1 051210Z 34011KT 07/04 A2997 RMK A01 T00700042  RH  083%=      5-min Rain = 0
KDO1 051211Z 34011KT 07/04 A2997 RMK A01 T00690042  RH  083%=      5-min Rain = 0
KDO1 051212Z 34011KT 07/04 A2997 RMK A01 T00690042  RH  083%=      5-min Rain = 0
KDO1 051213Z 34011KT 07/04 A2998 RMK A01 T00690042  RH  083%=      5-min Rain = 0
KDO1 051214Z 34010KT 07/04 A2998 RMK A01 T00690042  RH  083%=      5-min Rain = 0
KDO1 051215Z 34012KT 07/04 A2998 RMK A01 T00680041  RH  083%=      5-min Rain = 0
KDO1 051216Z 34010KT 07/04 A2998 RMK A01 T00670040  RH  083%=      5-min Rain = 0
KDO1 051217Z 34011KT 07/04 A2999 RMK A01 T00660040  RH  083%=      5-min Rain = 0
KDO1 051218Z 34012KT 07/04 A2999 RMK A01 T00660040  RH  083%=      5-min Rain = 0
KDO1 051219Z 34010KT 07/04 A2999 RMK A01 T00670040  RH  083%=      5-min Rain = 0
KDO1 051220Z 33011KT 07/04 A2999 RMK A01 T00670041  RH  083%=      5-min Rain = 0
KDO1 051221Z 34011KT 07/04 A2999 RMK A01 T00670040  RH  083%=      5-min Rain = 0
KDO1 051222Z 34011KT 07/04 A2999 RMK A01 T00660040  RH  083%=      5-min Rain = 0
KDO1 051223Z 34011KT 07/04 A2999 RMK A01 T00660040  RH  083%=      5-min Rain = 0
KDO1 051224Z 34010KT 07/04 A2999 RMK A01 T00660040  RH  083%=      5-min Rain = 0
KDO1 051225Z 34010KT 07/04 A2999 RMK A01 T00650039  RH  083%=      5-min Rain = 0
KDO1 051226Z 34011KT 07/04 A2999 RMK A01 T00650040  RH  084%=      5-min Rain = 0
KDO1 051227Z 34011KT 07/04 A2999 RMK A01 T00650040  RH  084%=      5-min Rain = 0
KDO1 051228Z 34011KT 07/04 A2999 RMK A01 T00650040  RH  084%=      5-min Rain = 0
KDO1 051229Z 34012KT 07/04 A30 RMK A01 T00650041  RH  084%=      5-min Rain = 0
KDO1 051230Z 35011KT 07/04 A30 RMK A01 T00650041  RH  084%=      5-min Rain = 0
KDO1 051231Z 35011KT 07/04 A30 RMK A01 T00650041  RH  084%=      5-min Rain = 0
KDO1 051232Z 35010KT 07/04 A30 RMK A01 T00650041  RH  085%=      5-min Rain = 0
KDO1 051233Z 35010KT 07/04 A30 RMK A01 T00650042  RH  085%=      5-min Rain = 0
KDO1 051234Z 35010KT 07/04 A30 RMK A01 T00650042  RH  085%=      5-min Rain = 0
KDO1 051235Z 35010KT 07/04 A30 RMK A01 T00650042  RH  085%=      5-min Rain = 0
KDO1 051236Z 35009KT 07/04 A30 RMK A01 T00650042  RH  085%=      5-min Rain = 0
KDO1 051237Z 35009KT 07/04 A30 RMK A01 T00650042  RH  085%=      5-min Rain = 0
KDO1 051238Z 35010KT 07/04 A30 RMK A01 T00650043  RH  086%=      5-min Rain = 0
KDO1 051239Z 35009KT 07/04 A30 RMK A01 T00650043  RH  086%=      5-min Rain = 0
KDO1 051240Z 35010KT 07/05 A30 RMK A01 T00660045  RH  086%=      5-min Rain = 0
KDO1 051241Z 35009KT 07/05 A30 RMK A01 T00680046  RH  086%=      5-min Rain = 0
KDO1 051242Z 35009KT 07/05 A30 RMK A01 T00680046  RH  086%=      5-min Rain = 0
KDO1 051243Z 34010KT 07/05 A30 RMK A01 T00690047  RH  086%=      5-min Rain = 0
KDO1 051244Z 35010KT 07/05 A30 RMK A01 T00700047  RH  086%=      5-min Rain = 0
KDO1 051245Z 35009KT 07/05 A3001 RMK A01 T00710048  RH  085%=      5-min Rain = 0
KDO1 051246Z 35010KT 07/05 A3001 RMK A01 T00720048  RH  085%=      5-min Rain = 0
KDO1 051247Z 34010KT 07/05 A3001 RMK A01 T00720048  RH  085%=      5-min Rain = 0
KDO1 051248Z 34010KT 07/05 A3001 RMK A01 T00730049  RH  085%=      5-min Rain = 0
KDO1 051249Z 35009KT 07/05 A3001 RMK A01 T00740049  RH  084%=      5-min Rain = 0
KDO1 051250Z 35011KT 07/05 A3001 RMK A01 T00740049  RH  084%=      5-min Rain = 0
KDO1 051251Z 35010KT 08/05 A3001 RMK A01 T00750050  RH  084%=      5-min Rain = 0
KDO1 051252Z 35011KT 08/05 A3001 RMK A01 T00760050  RH  084%=      5-min Rain = 0
KDO1 051253Z 35011KT 08/05 A3001 RMK A01 T00760050  RH  084%=      5-min Rain = 0
KDO1 051254Z 35012KT 08/05 A3001 RMK A01 T00770051  RH  084%=      5-min Rain = 0
KDO1 051255Z 35011KT 08/05 A3001 RMK A01 T00780051  RH  083%=      5-min Rain = 0
KDO1 051256Z 35011KT 08/05 A3001 RMK A01 T00780051  RH  083%=      5-min Rain = 0
KDO1 051257Z 35012KT 08/05 A3001 RMK A01 T00790052  RH  083%=      5-min Rain = 0
KDO1 051258Z 35011KT 08/05 A3002 RMK A01 T00800052  RH  082%=      5-min Rain = 0
KDO1 051259Z 35011KT 08/05 A3002 RMK A01 T00810052  RH  082%=      5-min Rain = 0
KDO1 051300Z 35012KT 08/05 A3002 RMK A01 T00820052  RH  081%=      5-min Rain = 0
KDO1 051301Z 35011G16KT 08/05 A3002 RMK A01 T00830052  RH  081%=      5-min Rain = 0
KDO1 051302Z 35011KT 08/05 A3002 RMK A01 T00830051  RH  081%=      5-min Rain = 0
KDO1 051303Z 35011KT 08/05 A3002 RMK A01 T00830052  RH  081%=      5-min Rain = 0
KDO1 051304Z 35010KT 08/05 A3002 RMK A01 T00830051  RH  081%=      5-min Rain = 0
KDO1 051305Z 35009KT 08/05 A3002 RMK A01 T00830052  RH  081%=      5-min Rain = 0
KDO1 051306Z 35010G15KT 08/05 A3002 RMK A01 T00830052  RH  081%=      5-min Rain = 0
KDO1 051307Z 35009KT 08/05 A3003 RMK A01 T00830051  RH  081%=      5-min Rain = 0
KDO1 051308Z 35010KT 08/05 A3003 RMK A01 T00820051  RH  081%=      5-min Rain = 0
KDO1 051309Z 35010KT 08/05 A3003 RMK A01 T00820051  RH  081%=      5-min Rain = 0
KDO1 051310Z 34012KT 08/05 A3003 RMK A01 T00820050  RH  081%=      5-min Rain = 0
KDO1 051311Z 34013KT 08/05 A3003 RMK A01 T00820050  RH  080%=      5-min Rain = 0
KDO1 051312Z 34013KT 08/05 A3003 RMK A01 T00820049  RH  079%=      5-min Rain = 0
KDO1 051313Z 34015KT 08/05 A3003 RMK A01 T00820048  RH  079%=      5-min Rain = 0
KDO1 051314Z 34015KT 08/05 A3003 RMK A01 T00820047  RH  079%=      5-min Rain = 0
KDO1 051315Z 34015KT 08/05 A3003 RMK A01 T00810045  RH  078%=      5-min Rain = 0
KDO1 051316Z 33016KT 08/04 A3003 RMK A01 T00810044  RH  078%=      5-min Rain = 0
KDO1 051317Z 34014KT 08/04 A3003 RMK A01 T00800043  RH  077%=      5-min Rain = 0
KDO1 051318Z 34013KT 08/04 A3003 RMK A01 T00790042  RH  077%=      5-min Rain = 0
KDO1 051319Z 33011KT 08/04 A3003 RMK A01 T00790042  RH  078%=      5-min Rain = 0
KDO1 051320Z 34012KT 08/04 A3003 RMK A01 T00780041  RH  078%=      5-min Rain = 0
KDO1 051321Z 34013KT 08/04 A3003 RMK A01 T00770041  RH  078%=      5-min Rain = 0
KDO1 051322Z 34013G18KT 08/04 A3003 RMK A01 T00770041  RH  078%=      5-min Rain = 0
KDO1 051323Z 34015KT 08/04 A3003 RMK A01 T00770040  RH  078%=      5-min Rain = 0
KDO1 051324Z 34012KT 08/04 A3004 RMK A01 T00770040  RH  077%=      5-min Rain = 0
KDO1 051325Z 33013KT 08/04 A3004 RMK A01 T00770040  RH  077%=      5-min Rain = 0
KDO1 051326Z 34014KT 08/04 A3004 RMK A01 T00760039  RH  077%=      5-min Rain = 0
KDO1 051327Z 33012KT 08/04 A3004 RMK A01 T00760039  RH  077%=      5-min Rain = 0
KDO1 051328Z 33012KT 08/04 A3004 RMK A01 T00760039  RH  077%=      5-min Rain = 0
KDO1 051329Z 33014KT 08/04 A3004 RMK A01 T00750038  RH  077%=      5-min Rain = 0
KDO1 051330Z 34014KT 08/04 A3004 RMK A01 T00750038  RH  077%=      5-min Rain = 0
KDO1 051331Z 34015G20KT 08/04 A3004 RMK A01 T00750038  RH  077%=      5-min Rain = 0
KDO1 051332Z 34013G18KT 08/04 A3004 RMK A01 T00750038  RH  077%=      5-min Rain = 0
KDO1 051333Z 34013G19KT 08/04 A3004 RMK A01 T00750039  RH  077%=      5-min Rain = 0
KDO1 051334Z 34014KT 08/04 A3004 RMK A01 T00760039  RH  078%=      5-min Rain = 0
KDO1 051335Z 34014KT 08/04 A3004 RMK A01 T00770040  RH  078%=      5-min Rain = 0
KDO1 051336Z 34015KT 08/04 A3004 RMK A01 T00770040  RH  078%=      5-min Rain = 0
KDO1 051337Z 34015KT 08/04 A3004 RMK A01 T00770041  RH  078%=      5-min Rain = 0
KDO1 051338Z 34012KT 08/04 A3004 RMK A01 T00780042  RH  078%=      5-min Rain = 0
KDO1 051339Z 34014KT 08/04 A3005 RMK A01 T00780041  RH  078%=      5-min Rain = 0
KDO1 051340Z 34014G19KT 08/04 A3005 RMK A01 T00780041  RH  078%=      5-min Rain = 0
KDO1 051341Z 34015G20KT 08/04 A3005 RMK A01 T00780042  RH  078%=      5-min Rain = 0
KDO1 051342Z 34015KT 08/04 A3005 RMK A01 T00780042  RH  078%=      5-min Rain = 0
KDO1 051343Z 34013KT 08/04 A3005 RMK A01 T00790043  RH  078%=      5-min Rain = 0
KDO1 051344Z 34010KT 08/04 A3005 RMK A01 T00790043  RH  078%=      5-min Rain = 0
KDO1 051345Z 35011G17KT 08/04 A3005 RMK A01 T00800044  RH  078%=      5-min Rain = 0
KDO1 051346Z 35012KT 08/05 A3005 RMK A01 T00800045  RH  079%=      5-min Rain = 0
KDO1 051347Z 35013G20KT 08/05 A3005 RMK A01 T00810046  RH  079%=      5-min Rain = 0
KDO1 051348Z 35010KT 08/05 A3005 RMK A01 T00810046  RH  079%=      5-min Rain = 0
KDO1 051349Z 35012KT 08/05 A3005 RMK A01 T00820047  RH  079%=      5-min Rain = 0
KDO1 051350Z 35014G19KT 08/05 A3005 RMK A01 T00810046  RH  079%=      5-min Rain = 0
KDO1 051351Z 35013KT 08/05 A3005 RMK A01 T00820047  RH  079%=      5-min Rain = 0
KDO1 051352Z 35013KT 08/05 A3005 RMK A01 T00820047  RH  079%=      5-min Rain = 0
KDO1 051353Z 35010G15KT 08/05 A3005 RMK A01 T00830048  RH  079%=      5-min Rain = 0
KDO1 051354Z 35014KT 08/05 A3005 RMK A01 T00830049  RH  079%=      5-min Rain = 0
KDO1 051355Z 36013KT 08/05 A3005 RMK A01 T00840050  RH  079%=      5-min Rain = 0
KDO1 051356Z 36014KT 08/05 A3006 RMK A01 T00840050  RH  079%=      5-min Rain = 0
KDO1 051357Z 36012KT 09/05 A3005 RMK A01 T00850051  RH  079%=      5-min Rain = 0
KDO1 051358Z 35014KT 09/05 A3005 RMK A01 T00850051  RH  079%=      5-min Rain = 0
KDO1 051359Z 35015KT 09/05 A3006 RMK A01 T00860052  RH  080%=      5-min Rain = 0
KDO1 051400Z 36016KT 09/05 A3006 RMK A01 T00860053  RH  080%=      5-min Rain = 0
KDO1 051401Z 35013KT 09/06 A3006 RMK A01 T00880055  RH  080%=      5-min Rain = 0
KDO1 051402Z 36014KT 09/06 A3006 RMK A01 T00880055  RH  080%=      5-min Rain = 0
KDO1 051403Z 00014KT 09/06 A3006 RMK A01 T00890056  RH  080%=      5-min Rain = 0
KDO1 051404Z 36011G16KT 09/06 A3006 RMK A01 T00890055  RH  080%=      5-min Rain = 0
KDO1 051405Z 36013KT 09/06 A3006 RMK A01 T00890057  RH  080%=      5-min Rain = 0
KDO1 051406Z 36014KT 09/06 A3006 RMK A01 T00900059  RH  081%=      5-min Rain = 0
KDO1 051407Z 35013G18KT 09/06 A3006 RMK A01 T00910059  RH  081%=      5-min Rain = 0
KDO1 051408Z 35015KT 09/06 A3006 RMK A01 T00910060  RH  081%=      5-min Rain = 0
KDO1 051409Z 36011KT 09/06 A3006 RMK A01 T00910060  RH  081%=      5-min Rain = 0
KDO1 051410Z 35013G18KT 09/06 A3006 RMK A01 T00920060  RH  081%=      5-min Rain = 0
KDO1 051411Z 35016KT 09/06 A3006 RMK A01 T00920061  RH  081%=      5-min Rain = 0
KDO1 051412Z 36015KT 09/06 A3006 RMK A01 T00920061  RH  081%=      5-min Rain = 0
KDO1 051413Z 36016KT 09/06 A3007 RMK A01 T00920062  RH  081%=      5-min Rain = 0
KDO1 051414Z 36014KT 09/06 A3007 RMK A01 T00930063  RH  082%=      5-min Rain = 0
KDO1 051415Z 36014KT 09/06 A3007 RMK A01 T00930063  RH  082%=      5-min Rain = 0
KDO1 051416Z 36015G20KT 09/06 A3007 RMK A01 T00930063  RH  082%=      5-min Rain = 0
KDO1 051417Z 36016KT 09/06 A3007 RMK A01 T00930064  RH  082%=      5-min Rain = 0
KDO1 051418Z 36014KT 09/06 A3007 RMK A01 T00930064  RH  082%=      5-min Rain = 0
KDO1 051419Z 35015KT 09/06 A3007 RMK A01 T00930064  RH  082%=      5-min Rain = 0
KDO1 051420Z 36017KT 09/06 A3007 RMK A01 T00930064  RH  082%=      5-min Rain = 0
KDO1 051421Z 35014KT 09/06 A3007 RMK A01 T00920064  RH  082%=      5-min Rain = 0
KDO1 051422Z 00013KT 09/06 A3007 RMK A01 T00930064  RH  083%=      5-min Rain = 0
KDO1 051423Z 36015KT 09/06 A3007 RMK A01 T00920064  RH  083%=      5-min Rain = 0
KDO1 051424Z 36016KT 09/07 A3008 RMK A01 T00920065  RH  083%=      5-min Rain = 0
KDO1 051425Z 36013KT 09/07 A3008 RMK A01 T00930065  RH  083%=      5-min Rain = 0
KDO1 051426Z 36014KT 09/07 A3008 RMK A01 T00930065  RH  083%=      5-min Rain = 0
KDO1 051427Z 36016KT 09/07 A3008 RMK A01 T00930065  RH  083%=      5-min Rain = 0
KDO1 051428Z 00016KT 09/07 A3008 RMK A01 T00930065  RH  083%=      5-min Rain = 0
KDO1 051429Z 00015KT 09/07 A3008 RMK A01 T00930065  RH  083%=      5-min Rain = 0
KDO1 051430Z 00015G20KT 09/07 A3008 RMK A01 T00940066  RH  083%=      5-min Rain = 0
KDO1 051431Z 36017G22KT 09/07 A3008 RMK A01 T00940066  RH  083%=      5-min Rain = 0
KDO1 051432Z 35013G18KT 09/07 A3008 RMK A01 T00940066  RH  083%=      5-min Rain = 0
KDO1 051433Z 00016KT 09/07 A3008 RMK A01 T00940066  RH  083%=      5-min Rain = 0
KDO1 051434Z 35013KT 09/07 A3008 RMK A01 T00940066  RH  083%=      5-min Rain = 0
KDO1 051435Z 36013KT 09/07 A3009 RMK A01 T00940066  RH  083%=      5-min Rain = 0
KDO1 051436Z 36014KT 09/07 A3009 RMK A01 T00940067  RH  083%=      5-min Rain = 0
KDO1 051437Z 36016KT 09/07 A3009 RMK A01 T00940067  RH  083%=      5-min Rain = 0
KDO1 051438Z 00016KT 10/07 A3009 RMK A01 T00950067  RH  083%=      5-min Rain = 0
KDO1 051439Z 36015KT 10/07 A3009 RMK A01 T00950068  RH  083%=      5-min Rain = 0
KDO1 051440Z 00013G20KT 10/07 A3009 RMK A01 T00950067  RH  083%=      5-min Rain = 0
KDO1 051441Z 35015G21KT 10/07 A3009 RMK A01 T00950068  RH  083%=      5-min Rain = 0
KDO1 051442Z 36012KT 10/07 A3009 RMK A01 T00950068  RH  083%=      5-min Rain = 0
KDO1 051443Z 36015KT 10/07 A3009 RMK A01 T00950068  RH  083%=      5-min Rain = 0
KDO1 051444Z 00011KT 10/07 A301 RMK A01 T00950068  RH  083%=      5-min Rain = 0
KDO1 051445Z 36014KT 10/07 A301 RMK A01 T00950068  RH  083%=      5-min Rain = 0
KDO1 051446Z 36013KT 10/07 A301 RMK A01 T00950069  RH  083%=      5-min Rain = 0
KDO1 051447Z 35015KT 10/07 A301 RMK A01 T00960069  RH  083%=      5-min Rain = 0
KDO1 051448Z 36014KT 10/07 A301 RMK A01 T00950069  RH  083%=      5-min Rain = 0
KDO1 051449Z 36016G21KT 10/07 A301 RMK A01 T00950069  RH  083%=      5-min Rain = 0
KDO1 051450Z 35014KT 10/07 A301 RMK A01 T00960069  RH  083%=      5-min Rain = 0
KDO1 051451Z 00013KT 10/07 A301 RMK A01 T00960069  RH  083%=      5-min Rain = 0
KDO1 051452Z 36012KT 10/07 A301 RMK A01 T00960069  RH  083%=      5-min Rain = 0
KDO1 051453Z 00015KT 10/07 A301 RMK A01 T00960069  RH  083%=      5-min Rain = 0
KDO1 051454Z 36013KT 10/07 A301 RMK A01 T00960070  RH  083%=      5-min Rain = 0
KDO1 051455Z 00015KT 10/07 A301 RMK A01 T00960069  RH  083%=      5-min Rain = 0
KDO1 051456Z 36012G17KT 10/07 A301 RMK A01 T00960070  RH  083%=      5-min Rain = 0
KDO1 051457Z 35013KT 10/07 A301 RMK A01 T00970070  RH  083%=      5-min Rain = 0
KDO1 051458Z 36013KT 10/07 A301 RMK A01 T00970070  RH  083%=      5-min Rain = 0
KDO1 051459Z 36013KT 10/07 A301 RMK A01 T00970070  RH  083%=      5-min Rain = 0
KDO1 051500Z 35012KT 10/07 A301 RMK A01 T00970070  RH  083%=      5-min Rain = 0
KDO1 051501Z 35014KT 10/07 A301 RMK A01 T00970070  RH  083%=      5-min Rain = 0
KDO1 051502Z 36015KT 10/07 A301 RMK A01 T00970070  RH  083%=      5-min Rain = 0
KDO1 051503Z 36014G19KT 10/07 A301 RMK A01 T00980071  RH  083%=      5-min Rain = 0
KDO1 051504Z 36011KT 10/07 A301 RMK A01 T00980071  RH  083%=      5-min Rain = 0
KDO1 051505Z 35012KT 10/07 A301 RMK A01 T00980071  RH  083%=      5-min Rain = 0
KDO1 051506Z 35015KT 10/07 A301 RMK A01 T00980071  RH  083%=      5-min Rain = 0
KDO1 051507Z 35012KT 10/07 A301 RMK A01 T00980071  RH  083%=      5-min Rain = 0
KDO1 051508Z 36010KT 10/07 A3011 RMK A01 T00980071  RH  083%=      5-min Rain = 0
KDO1 051509Z 36008KT 10/07 A3011 RMK A01 T00990072  RH  083%=      5-min Rain = 0
KDO1 051510Z 35012KT 10/07 A3011 RMK A01 T00990072  RH  083%=      5-min Rain = 0
KDO1 051511Z 35011KT 10/07 A3011 RMK A01 T01000072  RH  083%=      5-min Rain = 0
KDO1 051512Z 00009KT 10/07 A3011 RMK A01 T01000073  RH  083%=      5-min Rain = 0
KDO1 051513Z 35011KT 10/07 A3011 RMK A01 T01010074  RH  083%=      5-min Rain = 0
KDO1 051514Z 35011G16KT 10/07 A3011 RMK A01 T01020074  RH  083%=      5-min Rain = 0
KDO1 051515Z 35013KT 10/07 A3011 RMK A01 T01030074  RH  082%=      5-min Rain = 0
KDO1 051516Z 34010KT 10/07 A3011 RMK A01 T01030074  RH  082%=      5-min Rain = 0
KDO1 051517Z 35011KT 10/08 A3011 RMK A01 T01040075  RH  082%=      5-min Rain = 0
KDO1 051518Z 35010KT 10/08 A3011 RMK A01 T01040075  RH  082%=      5-min Rain = 0
KDO1 051519Z 35013KT 11/08 A3011 RMK A01 T01050075  RH  081%=      5-min Rain = 0
KDO1 051520Z 36010G15KT 11/07 A3011 RMK A01 T01050074  RH  081%=      5-min Rain = 0
KDO1 051521Z 35013G19KT 11/08 A3011 RMK A01 T01050075  RH  082%=      5-min Rain = 0
KDO1 051522Z 36015KT 11/07 A3011 RMK A01 T01050074  RH  081%=      5-min Rain = 0
KDO1 051523Z 36015KT 10/07 A3011 RMK A01 T01040074  RH  081%=      5-min Rain = 0
KDO1 051524Z 35017G24KT 10/07 A3011 RMK A01 T01030074  RH  082%=      5-min Rain = 0
KDO1 051525Z 35017KT 10/07 A3011 RMK A01 T01030073  RH  082%=      5-min Rain = 0
KDO1 051526Z 35016KT 10/07 A3011 RMK A01 T01030073  RH  082%=      5-min Rain = 0
KDO1 051527Z 34013G20KT 10/07 A3011 RMK A01 T01030074  RH  082%=      5-min Rain = 0
KDO1 051528Z 35019KT 10/07 A3011 RMK A01 T01030074  RH  082%=      5-min Rain = 0
KDO1 051529Z 35017G22KT 10/07 A3011 RMK A01 T01030074  RH  082%=      5-min Rain = 0
KDO1 051530Z 35016KT 10/07 A3011 RMK A01 T01020073  RH  083%=      5-min Rain = 0
KDO1 051531Z 35014KT 10/07 A3011 RMK A01 T01010074  RH  083%=      5-min Rain = 0
KDO1 051532Z 35014G19KT 10/08 A3011 RMK A01 T01010075  RH  084%=      5-min Rain = 0
KDO1 051533Z 35015KT 10/08 A3011 RMK A01 T01010075  RH  084%=      5-min Rain = 0
KDO1 051534Z 35012KT 10/08 A3012 RMK A01 T01000076  RH  085%=      5-min Rain = 0
KDO1 051535Z 35013KT 10/08 A3012 RMK A01 T01000077  RH  085%=      5-min Rain = 0
KDO1 051536Z 35011KT 10/08 A3012 RMK A01 T01000077  RH  086%=      5-min Rain = 0
KDO1 051537Z 34012KT 10/08 A3012 RMK A01 T00990078  RH  087%=      5-min Rain = 0
KDO1 051538Z 35010G18KT 10/08 A3012 RMK A01 T01000078  RH  087%=      5-min Rain = 0
KDO1 051539Z 35015KT 10/08 A3012 RMK A01 T00990078  RH  087%=      5-min Rain = 0
KDO1 051540Z 34014KT 10/08 A3012 RMK A01 T00990077  RH  086%=      5-min Rain = 0
KDO1 051541Z 35012KT 10/08 A3012 RMK A01 T00980077  RH  087%=      5-min Rain = 0
KDO1 051542Z 35014KT 10/08 A3012 RMK A01 T00980077  RH  086%=      5-min Rain = 0
KDO1 051543Z 34015KT 10/08 A3012 RMK A01 T00990077  RH  086%=      5-min Rain = 0
KDO1 051544Z 35014KT 10/08 A3012 RMK A01 T00980076  RH  086%=      5-min Rain = 0
KDO1 051545Z 36015KT 10/08 A3012 RMK A01 T00980076  RH  086%=      5-min Rain = 0
KDO1 051546Z 35015KT 10/08 A3012 RMK A01 T00980077  RH  086%=      5-min Rain = 0
KDO1 051547Z 36011G16KT 10/08 A3012 RMK A01 T00980076  RH  086%=      5-min Rain = 0
KDO1 051548Z 34013G19KT 10/08 A3013 RMK A01 T00980076  RH  086%=      5-min Rain = 0
KDO1 051549Z 35017G22KT 10/08 A3013 RMK A01 T00980076  RH  087%=      5-min Rain = 0
KDO1 051550Z 35016KT 10/08 A3013 RMK A01 T00970077  RH  088%=      5-min Rain = 0
KDO1 051551Z 35015KT 10/08 A3013 RMK A01 T00960078  RH  089%=      5-min Rain = 0
KDO1 051552Z 36015KT 10/08 A3013 RMK A01 T00950080  RH  090%=      5-min Rain = 0
KDO1 051553Z 36014KT 09/08 A3013 RMK A01 T00940080  RH  091%=      5-min Rain = 0
KDO1 051554Z 00014KT 09/08 A3013 RMK A01 T00930080  RH  091%=      5-min Rain = 0
KDO1 051555Z 00013KT 09/08 A3013 RMK A01 T00930081  RH  092%=      5-min Rain = 0
KDO1 051556Z 00015G20KT 09/08 A3013 RMK A01 T00930082  RH  093%=      5-min Rain = 0
KDO1 051557Z 35016KT 09/08 A3013 RMK A01 T00920082  RH  093%=      5-min Rain = 0
KDO1 051558Z 35014KT 09/08 A3013 RMK A01 T00920082  RH  093%=      5-min Rain = 0
KDO1 051559Z 00012KT 09/08 A3014 RMK A01 T00920082  RH  094%=      5-min Rain = 0
KDO1 051600Z 00013KT 09/08 A3014 RMK A01 T00910083  RH  094%=      5-min Rain = 0
KDO1 051601Z 36013KT 09/08 A3014 RMK A01 T00910083  RH  095%=      5-min Rain = 0
KDO1 051602Z 36012KT 09/08 A3014 RMK A01 T00910084  RH  096%=      5-min Rain = 0
KDO1 051603Z 36011KT 09/09 A3014 RMK A01 T00900085  RH  096%=      5-min Rain = 0
KDO1 051604Z 00010KT 09/09 A3014 RMK A01 T00900086  RH  097%=      5-min Rain = 0
KDO1 051605Z 00013KT 09/09 A3014 RMK A01 T00900087  RH  098%=      5-min Rain = 0
KDO1 051606Z 01011KT 09/09 A3014 RMK A01 T00890088  RH  099%=      5-min Rain = 0
KDO1 051607Z 01011KT 09/09 A3014 RMK A01 T00890088  RH  099%=      5-min Rain = 0
KDO1 051608Z 01012KT 09/09 A3015 RMK A01 T00890089  RH  100%=      5-min Rain = 0
KDO1 051609Z 01012KT 09/09 A3015 RMK A01 T00890089  RH  100%=      5-min Rain = 0.01
KDO1 051610Z 01014KT 09/09 A3015 RMK A01 T00880088  RH  100%=      5-min Rain = 0
KDO1 051611Z 01014KT 09/09 A3015 RMK A01 T00880088  RH  100%=      5-min Rain = 0
KDO1 051612Z 02014KT 09/09 A3015 RMK A01 T00880088  RH  100%=      5-min Rain = 0
KDO1 051613Z 02014KT 09/09 A3015 RMK A01 T00880088  RH  100%=      5-min Rain = 0
KDO1 051614Z 02013KT 09/09 A3015 RMK A01 T00880088  RH  100%=      5-min Rain = 0
KDO1 051615Z 02014G20KT 09/09 A3015 RMK A01 T00880088  RH  100%=      5-min Rain = 0
KDO1 051616Z 02014G19KT 09/09 A3015 RMK A01 T00880087  RH  100%=      5-min Rain = 0
KDO1 051617Z 02015G21KT 09/09 A3015 RMK A01 T00880085  RH  098%=      5-min Rain = 0
KDO1 051618Z 02013G19KT 09/09 A3015 RMK A01 T00880085  RH  098%=      5-min Rain = 0
KDO1 051619Z 01017G23KT 09/09 A3016 RMK A01 T00890085  RH  098%=      5-min Rain = 0
KDO1 051620Z 02016G21KT 09/08 A3016 RMK A01 T00890084  RH  097%=      5-min Rain = 0
KDO1 051621Z 02017G22KT 09/09 A3016 RMK A01 T00890085  RH  097%=      5-min Rain = 0
KDO1 051622Z 02018KT 09/08 A3016 RMK A01 T00890082  RH  096%=      5-min Rain = 0
KDO1 051623Z 02015G23KT 09/08 A3016 RMK A01 T00880080  RH  094%=      5-min Rain = 0
KDO1 051624Z 02019G25KT 09/08 A3016 RMK A01 T00880078  RH  094%=      5-min Rain = 0
KDO1 051625Z 02016KT 09/08 A3016 RMK A01 T00870076  RH  093%=      5-min Rain = 0
KDO1 051626Z 02013KT 09/08 A3016 RMK A01 T00860076  RH  094%=      5-min Rain = 0
KDO1 051627Z 02018G23KT 09/08 A3016 RMK A01 T00860077  RH  094%=      5-min Rain = 0
KDO1 051628Z 02015G20KT 09/08 A3016 RMK A01 T00860076  RH  094%=      5-min Rain = 0
KDO1 051629Z 02014G19KT 09/08 A3016 RMK A01 T00850076  RH  094%=      5-min Rain = 0
KDO1 051630Z 02015G20KT 09/08 A3016 RMK A01 T00860076  RH  094%=      5-min Rain = 0
KDO1 051631Z 01015KT 09/08 A3016 RMK A01 T00850075  RH  093%=      5-min Rain = 0
KDO1 051632Z 02013G19KT 09/08 A3016 RMK A01 T00860076  RH  094%=      5-min Rain = 0
KDO1 051633Z 02016G24KT 09/08 A3017 RMK A01 T00860078  RH  094%=      5-min Rain = 0
KDO1 051634Z 02015KT 09/08 A3017 RMK A01 T00870077  RH  094%=      5-min Rain = 0
KDO1 051635Z 02011G16KT 09/08 A3017 RMK A01 T00880079  RH  094%=      5-min Rain = 0
KDO1 051636Z 02012G20KT 09/08 A3017 RMK A01 T00890082  RH  096%=      5-min Rain = 0
KDO1 051637Z 02015KT 09/08 A3017 RMK A01 T00890081  RH  094%=      5-min Rain = 0
KDO1 051638Z 01013G18KT 09/08 A3017 RMK A01 T00890080  RH  094%=      5-min Rain = 0
KDO1 051639Z 02013KT 09/08 A3017 RMK A01 T00900081  RH  094%=      5-min Rain = 0
KDO1 051640Z 02016G21KT 09/08 A3017 RMK A01 T00900081  RH  094%=      5-min Rain = 0
KDO1 051641Z 01014KT 09/08 A3017 RMK A01 T00900079  RH  092%=      5-min Rain = 0
KDO1 051642Z 01016G21KT 09/08 A3017 RMK A01 T00900080  RH  093%=      5-min Rain = 0
KDO1 051643Z 02016KT 09/08 A3017 RMK A01 T00910078  RH  092%=      5-min Rain = 0
KDO1 051644Z 02013KT 09/08 A3017 RMK A01 T00920078  RH  091%=      5-min Rain = 0
KDO1 051645Z 01013KT 09/08 A3017 RMK A01 T00920080  RH  092%=      5-min Rain = 0
KDO1 051646Z 01014KT 09/08 A3017 RMK A01 T00930081  RH  092%=      5-min Rain = 0
KDO1 051647Z 01012KT 09/08 A3017 RMK A01 T00940080  RH  091%=      5-min Rain = 0
KDO1 051648Z 01015G20KT 09/08 A3017 RMK A01 T00940080  RH  091%=      5-min Rain = 0
KDO1 051649Z 01015KT 10/08 A3017 RMK A01 T00950079  RH  090%=      5-min Rain = 0
KDO1 051650Z 01017KT 10/08 A3017 RMK A01 T00970079  RH  089%=      5-min Rain = 0
KDO1 051651Z 02014KT 10/08 A3017 RMK A01 T00980079  RH  088%=      5-min Rain = 0
KDO1 051652Z 01015KT 10/08 A3018 RMK A01 T01000082  RH  088%=      5-min Rain = 0
KDO1 051653Z 02014KT 10/08 A3018 RMK A01 T01010080  RH  087%=      5-min Rain = 0
KDO1 051654Z 02014G21KT 10/08 A3018 RMK A01 T01010079  RH  087%=      5-min Rain = 0
KDO1 051655Z 01015KT 10/08 A3018 RMK A01 T01010079  RH  086%=      5-min Rain = 0
KDO1 051656Z 01016KT 10/08 A3018 RMK A01 T01000078  RH  086%=      5-min Rain = 0
KDO1 051657Z 01018KT 10/08 A3018 RMK A01 T01000077  RH  086%=      5-min Rain = 0
KDO1 051658Z 02014G19KT 10/07 A3018 RMK A01 T00990074  RH  084%=      5-min Rain = 0
KDO1 051659Z 02016G23KT 10/07 A3018 RMK A01 T00990074  RH  084%=      5-min Rain = 0
KDO1 051700Z 02018G24KT 10/07 A3018 RMK A01 T00990072  RH  083%=      5-min Rain = 0
KDO1 051701Z 02016G22KT 10/07 A3018 RMK A01 T00980069  RH  083%=      5-min Rain = 0
KDO1 051702Z 01013KT 10/07 A3018 RMK A01 T00970071  RH  084%=      5-min Rain = 0
KDO1 051703Z 01013G18KT 10/07 A3018 RMK A01 T00960071  RH  085%=      5-min Rain = 0
KDO1 051704Z 01012G18KT 10/07 A3018 RMK A01 T00950071  RH  085%=      5-min Rain = 0
KDO1 051705Z 01016KT 10/07 A3018 RMK A01 T00960071  RH  084%=      5-min Rain = 0
KDO1 051706Z 00017G25KT 10/07 A3018 RMK A01 T00960070  RH  084%=      5-min Rain = 0
KDO1 051707Z 01016G21KT 10/07 A3018 RMK A01 T00970070  RH  083%=      5-min Rain = 0
KDO1 051708Z 01019G24KT 10/07 A3018 RMK A01 T00980067  RH  081%=      5-min Rain = 0
KDO1 051709Z 02016KT 10/07 A3018 RMK A01 T00980066  RH  081%=      5-min Rain = 0
KDO1 051710Z 02015G20KT 10/07 A3018 RMK A01 T00990070  RH  082%=      5-min Rain = 0
KDO1 051711Z 01019KT 10/07 A3018 RMK A01 T01010069  RH  081%=      5-min Rain = 0
KDO1 051712Z 01018G25KT 10/07 A3018 RMK A01 T01020069  RH  080%=      5-min Rain = 0
KDO1 051713Z 01021G26KT 10/07 A3018 RMK A01 T01020066  RH  079%=      5-min Rain = 0
KDO1 051714Z 01017G22KT 10/07 A3018 RMK A01 T01030068  RH  079%=      5-min Rain = 0
KDO1 051715Z 01015KT 11/07 A3018 RMK A01 T01050073  RH  080%=      5-min Rain = 0
KDO1 051716Z 01016G21KT 11/07 A3018 RMK A01 T01070072  RH  079%=      5-min Rain = 0
KDO1 051717Z 00015G21KT 11/07 A3018 RMK A01 T01070072  RH  079%=      5-min Rain = 0
KDO1 051718Z 02015G22KT 11/07 A3018 RMK A01 T01080073  RH  079%=      5-min Rain = 0
KDO1 051719Z 02014G21KT 11/07 A3018 RMK A01 T01090073  RH  079%=      5-min Rain = 0
KDO1 051720Z 01018G24KT 11/07 A3018 RMK A01 T01110071  RH  077%=      5-min Rain = 0
KDO1 051721Z 01017KT 11/07 A3018 RMK A01 T01100069  RH  076%=      5-min Rain = 0
KDO1 051722Z 01017G22KT 11/07 A3018 RMK A01 T01090069  RH  076%=      5-min Rain = 0
KDO1 051723Z 01018G25KT 11/07 A3018 RMK A01 T01090067  RH  075%=      5-min Rain = 0
KDO1 051724Z 02019G26KT 11/07 A3018 RMK A01 T01070065  RH  075%=      5-min Rain = 0
KDO1 051725Z 02022G30KT 11/06 A3018 RMK A01 T01050064  RH  076%=      5-min Rain = 0
KDO1 051726Z 02016G21KT 10/06 A3018 RMK A01 T01040063  RH  076%=      5-min Rain = 0
KDO1 051727Z 02017G24KT 10/06 A3019 RMK A01 T01030064  RH  076%=      5-min Rain = 0
KDO1 051728Z 01021G27KT 10/06 A3019 RMK A01 T01040063  RH  076%=      5-min Rain = 0
KDO1 051729Z 01018G24KT 10/06 A3018 RMK A01 T01040063  RH  076%=      5-min Rain = 0
KDO1 051730Z 02020KT 10/06 A3019 RMK A01 T01040064  RH  076%=      5-min Rain = 0
KDO1 051731Z 02018G23KT 10/06 A3019 RMK A01 T01030063  RH  076%=      5-min Rain = 0
KDO1 051732Z 02016G21KT 10/06 A3019 RMK A01 T01020064  RH  077%=      5-min Rain = 0
KDO1 051733Z 02016KT 10/07 A3019 RMK A01 T01020065  RH  078%=      5-min Rain = 0
KDO1 051734Z 02017KT 10/07 A3019 RMK A01 T01010065  RH  078%=      5-min Rain = 0
KDO1 051735Z 02017G26KT 10/07 A3018 RMK A01 T01010065  RH  078%=      5-min Rain = 0
KDO1 051736Z 02019KT 10/07 A3018 RMK A01 T01010065  RH  078%=      5-min Rain = 0
KDO1 051737Z 02020G26KT 10/06 A3019 RMK A01 T01010063  RH  077%=      5-min Rain = 0
KDO1 051738Z 02020G26KT 10/06 A3019 RMK A01 T01010063  RH  077%=      5-min Rain = 0
KDO1 051739Z 02022G28KT 10/06 A3019 RMK A01 T01010063  RH  077%=      5-min Rain = 0
KDO1 051740Z 02022G28KT 10/06 A3019 RMK A01 T01000062  RH  077%=      5-min Rain = 0
KDO1 051741Z 02021KT 10/06 A3019 RMK A01 T01000062  RH  078%=      5-min Rain = 0
KDO1 051742Z 02022G27KT 10/06 A3019 RMK A01 T00990062  RH  078%=      5-min Rain = 0
KDO1 051743Z 03019KT 10/06 A3019 RMK A01 T00980062  RH  078%=      5-min Rain = 0
KDO1 051744Z 02020G26KT 10/06 A3019 RMK A01 T00970062  RH  079%=      5-min Rain = 0
KDO1 051745Z 02020G25KT 10/06 A3019 RMK A01 T00970062  RH  079%=      5-min Rain = 0
KDO1 051746Z 02018G24KT 10/06 A3019 RMK A01 T00960062  RH  079%=      5-min Rain = 0
KDO1 051747Z 02017G23KT 10/06 A3019 RMK A01 T00960062  RH  079%=      5-min Rain = 0
KDO1 051748Z 02018KT 10/06 A3019 RMK A01 T00960063  RH  080%=      5-min Rain = 0
KDO1 051749Z 02021G26KT 10/06 A3019 RMK A01 T00960063  RH  080%=      5-min Rain = 0
KDO1 051750Z 02022G28KT 10/06 A3019 RMK A01 T00960063  RH  080%=      5-min Rain = 0
KDO1 051751Z 02022G29KT 10/06 A3019 RMK A01 T00960062  RH  080%=      5-min Rain = 0
KDO1 051752Z 02025KT 10/06 A3019 RMK A01 T00960062  RH  079%=      5-min Rain = 0
KDO1 051753Z 01018G25KT 10/06 A3019 RMK A01 T00960062  RH  080%=      5-min Rain = 0
KDO1 051754Z 02017G23KT 10/06 A3019 RMK A01 T00960063  RH  080%=      5-min Rain = 0
KDO1 051755Z 01019G28KT 10/06 A3019 RMK A01 T00960063  RH  080%=      5-min Rain = 0
KDO1 051756Z 01022G28KT 10/06 A3019 RMK A01 T00970063  RH  079%=      5-min Rain = 0
KDO1 051757Z 02022G27KT 10/06 A3019 RMK A01 T00970062  RH  079%=      5-min Rain = 0
KDO1 051758Z 01022KT 10/06 A3019 RMK A01 T00970062  RH  079%=      5-min Rain = 0
KDO1 051759Z 01021G27KT 10/06 A3019 RMK A01 T00970062  RH  079%=      5-min Rain = 0
KDO1 051800Z 01020KT 10/06 A3019 RMK A01 T00970062  RH  079%=      5-min Rain = 0
KDO1 051801Z 02020G29KT 10/06 A3019 RMK A01 T00980063  RH  079%=      5-min Rain = 0
KDO1 051802Z 01019G24KT 10/06 A3019 RMK A01 T00980062  RH  078%=      5-min Rain = 0
KDO1 051803Z 01021G26KT 10/06 A3019 RMK A01 T00970062  RH  079%=      5-min Rain = 0
KDO1 051804Z 02021G27KT 10/06 A302 RMK A01 T00980063  RH  079%=      5-min Rain = 0
KDO1 051805Z 02019G27KT 10/06 A3019 RMK A01 T00970063  RH  079%=      5-min Rain = 0
KDO1 051806Z 02018G24KT 10/06 A302 RMK A01 T00970063  RH  079%=      5-min Rain = 0
KDO1 051807Z 01019KT 10/06 A3019 RMK A01 T00980064  RH  079%=      5-min Rain = 0
KDO1 051808Z 02016G21KT 10/06 A302 RMK A01 T00980064  RH  079%=      5-min Rain = 0
KDO1 051809Z 02015G21KT 10/07 A3019 RMK A01 T00990065  RH  079%=      5-min Rain = 0
KDO1 051810Z 02014KT 10/07 A3019 RMK A01 T00990065  RH  079%=      5-min Rain = 0
KDO1 051811Z 01017G23KT 10/07 A3019 RMK A01 T01000066  RH  079%=      5-min Rain = 0
KDO1 051812Z 01018KT 10/06 A3019 RMK A01 T01000064  RH  078%=      5-min Rain = 0
KDO1 051813Z 02017G25KT 10/06 A3019 RMK A01 T01000064  RH  078%=      5-min Rain = 0
KDO1 051814Z 01014KT 10/07 A3019 RMK A01 T01000065  RH  079%=      5-min Rain = 0
KDO1 051815Z 01016G22KT 10/06 A302 RMK A01 T01000064  RH  078%=      5-min Rain = 0
KDO1 051816Z 01021KT 10/06 A302 RMK A01 T01000063  RH  078%=      5-min Rain = 0
KDO1 051817Z 01019G25KT 10/06 A302 RMK A01 T00990062  RH  078%=      5-min Rain = 0
KDO1 051818Z 01018KT 10/06 A302 RMK A01 T00990062  RH  078%=      5-min Rain = 0
KDO1 051819Z 02020G27KT 10/06 A302 RMK A01 T00990062  RH  078%=      5-min Rain = 0
KDO1 051820Z 01017G26KT 10/06 A302 RMK A01 T00990062  RH  078%=      5-min Rain = 0
KDO1 051821Z 01019G24KT 10/06 A302 RMK A01 T00990062  RH  078%=      5-min Rain = 0
KDO1 051822Z 01017G24KT 10/06 A302 RMK A01 T00990061  RH  078%=      5-min Rain = 0
KDO1 051823Z 02017G24KT 10/06 A302 RMK A01 T00990062  RH  078%=      5-min Rain = 0
KDO1 051824Z 01017G25KT 10/06 A302 RMK A01 T00980062  RH  078%=      5-min Rain = 0
KDO1 051825Z 02018KT 10/06 A302 RMK A01 T00980062  RH  078%=      5-min Rain = 0
KDO1 051826Z 02013G19KT 10/06 A302 RMK A01 T00970062  RH  079%=      5-min Rain = 0
KDO1 051827Z 02017G26KT 10/06 A302 RMK A01 T00970063  RH  079%=      5-min Rain = 0
KDO1 051828Z 01016G24KT 10/06 A302 RMK A01 T00970063  RH  079%=      5-min Rain = 0
KDO1 051829Z 02015G20KT 10/06 A302 RMK A01 T00960063  RH  080%=      5-min Rain = 0
KDO1 051830Z 02014G21KT 10/06 A302 RMK A01 T00960064  RH  081%=      5-min Rain = 0
KDO1 051831Z 02012KT 10/07 A302 RMK A01 T00950065  RH  081%=      5-min Rain = 0
KDO1 051832Z 01015G21KT 10/07 A302 RMK A01 T00950065  RH  081%=      5-min Rain = 0
KDO1 051833Z 02016G21KT 10/06 A302 RMK A01 T00950064  RH  081%=      5-min Rain = 0
KDO1 051834Z 02018KT 09/06 A302 RMK A01 T00940064  RH  081%=      5-min Rain = 0
KDO1 051835Z 02015G20KT 09/07 A302 RMK A01 T00940065  RH  082%=      5-min Rain = 0
KDO1 051836Z 02015G20KT 09/07 A3021 RMK A01 T00940065  RH  082%=      5-min Rain = 0
KDO1 051837Z 02014G20KT 09/07 A3021 RMK A01 T00930065  RH  083%=      5-min Rain = 0
KDO1 051838Z 02016KT 09/07 A3021 RMK A01 T00940066  RH  083%=      5-min Rain = 0
KDO1 051839Z 02015G22KT 09/07 A3021 RMK A01 T00930065  RH  083%=      5-min Rain = 0
KDO1 051840Z 02017G22KT 09/07 A3021 RMK A01 T00930066  RH  083%=      5-min Rain = 0
KDO1 051841Z 03015G20KT 09/07 A3021 RMK A01 T00930066  RH  083%=      5-min Rain = 0
KDO1 051842Z 03012KT 09/07 A3021 RMK A01 T00930066  RH  084%=      5-min Rain = 0
KDO1 051843Z 03012KT 09/07 A3021 RMK A01 T00930067  RH  084%=      5-min Rain = 0
KDO1 051844Z 03012KT 09/07 A3021 RMK A01 T00930067  RH  084%=      5-min Rain = 0
KDO1 051845Z 04013G18KT 09/07 A3021 RMK A01 T00910068  RH  086%=      5-min Rain = 0
KDO1 051846Z 04012G18KT 09/07 A3021 RMK A01 T00890069  RH  088%=      5-min Rain = 0
KDO1 051847Z 04016KT 09/07 A3021 RMK A01 T00870069  RH  089%=      5-min Rain = 0
KDO1 051848Z 03015KT 09/07 A3021 RMK A01 T00850069  RH  089%=      5-min Rain = 0
KDO1 051849Z 03013KT 08/07 A3021 RMK A01 T00840070  RH  090%=      5-min Rain = 0
KDO1 051850Z 04011KT 08/07 A3021 RMK A01 T00840071  RH  091%=      5-min Rain = 0
KDO1 051851Z 03012KT 08/07 A3021 RMK A01 T00840071  RH  092%=      5-min Rain = 0
KDO1 051852Z 04012KT 08/07 A3021 RMK A01 T00840071  RH  091%=      5-min Rain = 0
KDO1 051853Z 03012KT 08/07 A3021 RMK A01 T00840071  RH  091%=      5-min Rain = 0
KDO1 051854Z 03010G15KT 08/07 A3021 RMK A01 T00840071  RH  091%=      5-min Rain = 0
KDO1 051855Z 03013KT 08/07 A3021 RMK A01 T00840071  RH  091%=      5-min Rain = 0
KDO1 051856Z 03009KT 08/07 A3021 RMK A01 T00840071  RH  091%=      5-min Rain = 0
KDO1 051857Z 02011G16KT 09/07 A3021 RMK A01 T00850071  RH  091%=      5-min Rain = 0
KDO1 051858Z 02011KT 09/07 A3021 RMK A01 T00850071  RH  091%=      5-min Rain = 0
KDO1 051859Z 03011KT 09/07 A3021 RMK A01 T00860071  RH  090%=      5-min Rain = 0
KDO1 051900Z 03012KT 09/07 A3021 RMK A01 T00870070  RH  090%=      5-min Rain = 0
KDO1 051901Z 03010KT 09/07 A3021 RMK A01 T00870071  RH  089%=      5-min Rain = 0
KDO1 051902Z 03010KT 09/07 A3021 RMK A01 T00880071  RH  089%=      5-min Rain = 0
KDO1 051903Z 03012KT 09/07 A3021 RMK A01 T00890071  RH  089%=      5-min Rain = 0
KDO1 051904Z 03011KT 09/07 A3021 RMK A01 T00900071  RH  088%=      5-min Rain = 0
KDO1 051905Z 03013KT 09/07 A3021 RMK A01 T00910071  RH  088%=      5-min Rain = 0
KDO1 051906Z 03012G17KT 09/07 A3021 RMK A01 T00920071  RH  087%=      5-min Rain = 0
KDO1 051907Z 03011KT 09/07 A3021 RMK A01 T00930071  RH  086%=      5-min Rain = 0
KDO1 051908Z 02012KT 09/07 A3021 RMK A01 T00940071  RH  086%=      5-min Rain = 0
KDO1 051909Z 02011KT 09/07 A3021 RMK A01 T00940070  RH  085%=      5-min Rain = 0
KDO1 051910Z 03012KT 10/07 A3021 RMK A01 T00950069  RH  084%=      5-min Rain = 0
KDO1 051911Z 03015KT 10/07 A3021 RMK A01 T00950067  RH  083%=      5-min Rain = 0
KDO1 051912Z 02012G19KT 10/07 A3021 RMK A01 T00950066  RH  082%=      5-min Rain = 0
KDO1 051913Z 02013G18KT 10/07 A3021 RMK A01 T00950065  RH  082%=      5-min Rain = 0
KDO1 051914Z 02012G17KT 10/07 A3021 RMK A01 T00950066  RH  082%=      5-min Rain = 0
KDO1 051915Z 02016KT 10/06 A3021 RMK A01 T00950064  RH  081%=      5-min Rain = 0
KDO1 051916Z 03012G17KT 10/06 A3021 RMK A01 T00950062  RH  080%=      5-min Rain = 0
KDO1 051917Z 03012KT 09/06 A3021 RMK A01 T00940062  RH  081%=      5-min Rain = 0
KDO1 051918Z 03012KT 09/06 A3021 RMK A01 T00940063  RH  081%=      5-min Rain = 0
KDO1 051919Z 03016KT 09/06 A3021 RMK A01 T00940062  RH  080%=      5-min Rain = 0
KDO1 051920Z 02013KT 09/06 A3021 RMK A01 T00940061  RH  080%=      5-min Rain = 0
KDO1 051921Z 02015KT 09/06 A3021 RMK A01 T00940061  RH  080%=      5-min Rain = 0
KDO1 051922Z 02014KT 09/06 A3021 RMK A01 T00940060  RH  079%=      5-min Rain = 0
KDO1 051923Z 03015KT 09/06 A3021 RMK A01 T00940061  RH  079%=      5-min Rain = 0
KDO1 051924Z 03016KT 10/06 A3021 RMK A01 T00950060  RH  079%=      5-min Rain = 0
KDO1 051925Z 03016G21KT 10/06 A3021 RMK A01 T00960061  RH  079%=      5-min Rain = 0
KDO1 051926Z 03015G21KT 10/06 A3021 RMK A01 T00960060  RH  078%=      5-min Rain = 0
KDO1 051927Z 02016KT 10/06 A3021 RMK A01 T00970061  RH  078%=      5-min Rain = 0
KDO1 051928Z 03017G22KT 10/06 A3021 RMK A01 T00970060  RH  078%=      5-min Rain = 0
KDO1 051929Z 03017G22KT 10/06 A3021 RMK A01 T00970060  RH  078%=      5-min Rain = 0
KDO1 051930Z 03014G20KT 10/06 A3021 RMK A01 T00960060  RH  078%=      5-min Rain = 0
KDO1 051931Z 03013G19KT 10/06 A3021 RMK A01 T00970061  RH  078%=      5-min Rain = 0
KDO1 051932Z 03015KT 10/06 A3021 RMK A01 T00970061  RH  078%=      5-min Rain = 0
KDO1 051933Z 03015KT 10/06 A3021 RMK A01 T00960060  RH  078%=      5-min Rain = 0
KDO1 051934Z 02014KT 10/06 A3021 RMK A01 T00970059  RH  077%=      5-min Rain = 0
KDO1 051935Z 02018KT 10/06 A3021 RMK A01 T00960058  RH  077%=      5-min Rain = 0
KDO1 051936Z 02015KT 10/06 A3021 RMK A01 T00970058  RH  077%=      5-min Rain = 0
KDO1 051937Z 02011KT 10/06 A3021 RMK A01 T00970059  RH  077%=      5-min Rain = 0
KDO1 051938Z 01009G14KT 10/06 A302 RMK A01 T00990061  RH  077%=      5-min Rain = 0
KDO1 051939Z 01010G18KT 10/06 A302 RMK A01 T01010061  RH  077%=      5-min Rain = 0
KDO1 051940Z 02014KT 10/06 A302 RMK A01 T01030061  RH  075%=      5-min Rain = 0
KDO1 051941Z 02015G20KT 11/06 A302 RMK A01 T01050061  RH  074%=      5-min Rain = 0
KDO1 051942Z 03018G23KT 11/06 A302 RMK A01 T01060059  RH  072%=      5-min Rain = 0
KDO1 051943Z 02013G22KT 11/06 A302 RMK A01 T01070058  RH  072%=      5-min Rain = 0
KDO1 051944Z 02011G20KT 11/06 A302 RMK A01 T01080060  RH  073%=      5-min Rain = 0
KDO1 051945Z 01013G19KT 11/06 A302 RMK A01 T01100060  RH  071%=      5-min Rain = 0
KDO1 051946Z 02016G23KT 11/06 A302 RMK A01 T01100058  RH  070%=      5-min Rain = 0
KDO1 051947Z 01018KT 11/06 A302 RMK A01 T01090056  RH  070%=      5-min Rain = 0
KDO1 051948Z 02016G22KT 11/06 A302 RMK A01 T01080057  RH  071%=      5-min Rain = 0
KDO1 051949Z 02017KT 11/06 A302 RMK A01 T01080057  RH  071%=      5-min Rain = 0
KDO1 051950Z 01010KT 11/06 A302 RMK A01 T01090059  RH  072%=      5-min Rain = 0
KDO1 051951Z 01015G22KT 11/06 A302 RMK A01 T01120062  RH  071%=      5-min Rain = 0
KDO1 051952Z 02011G16KT 12/06 A302 RMK A01 T01150064  RH  071%=      5-min Rain = 0
KDO1 051953Z 01010KT 12/07 A302 RMK A01 T01190067  RH  070%=      5-min Rain = 0
KDO1 051954Z 01014KT 12/07 A302 RMK A01 T01220066  RH  069%=      5-min Rain = 0
KDO1 051955Z 00017G24KT 12/07 A3019 RMK A01 T01220066  RH  069%=      5-min Rain = 0
KDO1 051956Z 36019G24KT 12/07 A3019 RMK A01 T01220065  RH  068%=      5-min Rain = 0
KDO1 051957Z 01018G23KT 12/06 A302 RMK A01 T01210064  RH  068%=      5-min Rain = 0
KDO1 051958Z 01016G21KT 12/06 A3019 RMK A01 T01190062  RH  068%=      5-min Rain = 0
KDO1 051959Z 01015G22KT 12/06 A302 RMK A01 T01190063  RH  068%=      5-min Rain = 0
KDO1 052000Z 01018G23KT 12/06 A302 RMK A01 T01190061  RH  068%=      5-min Rain = 0
KDO1 052001Z 01017KT 12/06 A302 RMK A01 T01190059  RH  067%=      5-min Rain = 0
KDO1 052002Z 01015G21KT 12/06 A302 RMK A01 T01170058  RH  067%=      5-min Rain = 0
KDO1 052003Z 01014G20KT 12/06 A302 RMK A01 T01170059  RH  068%=      5-min Rain = 0
KDO1 052004Z 02011G17KT 12/06 A302 RMK A01 T01190060  RH  068%=      5-min Rain = 0
KDO1 052005Z 02014G19KT 12/06 A302 RMK A01 T01200057  RH  065%=      5-min Rain = 0
KDO1 052006Z 01016G21KT 12/06 A302 RMK A01 T01200055  RH  064%=      5-min Rain = 0
KDO1 052007Z 01018G23KT 12/05 A302 RMK A01 T01200054  RH  064%=      5-min Rain = 0
KDO1 052008Z 02015G21KT 12/06 A302 RMK A01 T01190055  RH  065%=      5-min Rain = 0
KDO1 052009Z 01014G20KT 12/05 A302 RMK A01 T01200054  RH  064%=      5-min Rain = 0
KDO1 052010Z 01014G20KT 12/05 A302 RMK A01 T01200054  RH  064%=      5-min Rain = 0
KDO1 052011Z 02019G24KT 12/05 A302 RMK A01 T01190052  RH  063%=      5-min Rain = 0
KDO1 052012Z 01019KT 12/05 A302 RMK A01 T01180052  RH  064%=      5-min Rain = 0
KDO1 052013Z 01015KT 12/05 A302 RMK A01 T01180052  RH  064%=      5-min Rain = 0
KDO1 052014Z 03013KT 12/05 A302 RMK A01 T01190054  RH  065%=      5-min Rain = 0
KDO1 052015Z 02014KT 12/06 A302 RMK A01 T01210055  RH  064%=      5-min Rain = 0
KDO1 052016Z 01016KT 12/06 A302 RMK A01 T01220055  RH  063%=      5-min Rain = 0
KDO1 052017Z 01016G22KT 12/05 A302 RMK A01 T01230053  RH  063%=      5-min Rain = 0
KDO1 052018Z 02017G23KT 12/05 A302 RMK A01 T01230053  RH  063%=      5-min Rain = 0
KDO1 052019Z 02015KT 12/05 A302 RMK A01 T01220054  RH  063%=      5-min Rain = 0
KDO1 052020Z 02014KT 12/05 A302 RMK A01 T01220054  RH  063%=      5-min Rain = 0
KDO1 052021Z 01015G20KT 12/06 A302 RMK A01 T01220055  RH  064%=      5-min Rain = 0
KDO1 052022Z 02018KT 12/06 A302 RMK A01 T01220055  RH  063%=      5-min Rain = 0
KDO1 052023Z 02019KT 12/05 A302 RMK A01 T01220054  RH  063%=      5-min Rain = 0
KDO1 052024Z 02019G25KT 12/05 A302 RMK A01 T01210054  RH  063%=      5-min Rain = 0
KDO1 052025Z 02019KT 12/05 A302 RMK A01 T01220054  RH  063%=      5-min Rain = 0
KDO1 052026Z 02018G23KT 12/05 A302 RMK A01 T01220054  RH  063%=      5-min Rain = 0
KDO1 052027Z 03019KT 12/05 A302 RMK A01 T01220054  RH  063%=      5-min Rain = 0
KDO1 052028Z 02015G22KT 12/05 A302 RMK A01 T01210054  RH  063%=      5-min Rain = 0
KDO1 052029Z 01017KT 12/06 A302 RMK A01 T01220055  RH  064%=      5-min Rain = 0
KDO1 052030Z 02016KT 12/06 A302 RMK A01 T01220055  RH  063%=      5-min Rain = 0
KDO1 052031Z 01015KT 12/06 A302 RMK A01 T01220056  RH  064%=      5-min Rain = 0
KDO1 052032Z 02015KT 12/06 A3019 RMK A01 T01230056  RH  064%=      5-min Rain = 0
KDO1 052033Z 02017G22KT 13/06 A302 RMK A01 T01250056  RH  063%=      5-min Rain = 0
KDO1 052034Z 01016G21KT 13/06 A302 RMK A01 T01250056  RH  063%=      5-min Rain = 0
KDO1 052035Z 02015G23KT 13/06 A302 RMK A01 T01250056  RH  063%=      5-min Rain = 0
KDO1 052036Z 02015G21KT 13/06 A302 RMK A01 T01250056  RH  063%=      5-min Rain = 0
KDO1 052037Z 02018KT 13/06 A302 RMK A01 T01260057  RH  063%=      5-min Rain = 0
KDO1 052038Z 02014G22KT 13/06 A302 RMK A01 T01260058  RH  063%=      5-min Rain = 0
KDO1 052039Z 03018KT 13/06 A302 RMK A01 T01290059  RH  062%=      5-min Rain = 0
KDO1 052040Z 03018G23KT 13/06 A302 RMK A01 T01300059  RH  062%=      5-min Rain = 0
KDO1 052041Z 03018G23KT 13/06 A302 RMK A01 T01300059  RH  062%=      5-min Rain = 0
KDO1 052042Z 03016KT 13/06 A302 RMK A01 T01290059  RH  062%=      5-min Rain = 0
KDO1 052043Z 02018G25KT 13/06 A302 RMK A01 T01290059  RH  062%=      5-min Rain = 0
KDO1 052044Z 02018G24KT 13/06 A302 RMK A01 T01290057  RH  062%=      5-min Rain = 0
KDO1 052045Z 03019G27KT 13/06 A302 RMK A01 T01270057  RH  062%=      5-min Rain = 0
KDO1 052046Z 03020G25KT 13/06 A302 RMK A01 T01260057  RH  063%=      5-min Rain = 0
KDO1 052047Z 03020G26KT 13/06 A302 RMK A01 T01250055  RH  062%=      5-min Rain = 0
KDO1 052048Z 02017G24KT 12/06 A302 RMK A01 T01240055  RH  062%=      5-min Rain = 0
KDO1 052049Z 02016G21KT 13/06 A302 RMK A01 T01250056  RH  063%=      5-min Rain = 0
KDO1 052050Z 01019G24KT 13/06 A302 RMK A01 T01260057  RH  063%=      5-min Rain = 0
KDO1 052051Z 01020G27KT 13/06 A302 RMK A01 T01260056  RH  062%=      5-min Rain = 0
KDO1 052052Z 02019KT 13/06 A302 RMK A01 T01260057  RH  063%=      5-min Rain = 0
KDO1 052053Z 01015G22KT 13/06 A302 RMK A01 T01270058  RH  063%=      5-min Rain = 0
KDO1 052054Z 01017G22KT 13/06 A302 RMK A01 T01280057  RH  062%=      5-min Rain = 0
KDO1 052055Z 01017G22KT 13/06 A302 RMK A01 T01280058  RH  062%=      5-min Rain = 0
KDO1 052056Z 01016G22KT 13/06 A302 RMK A01 T01300059  RH  062%=      5-min Rain = 0
KDO1 052057Z 01016G22KT 13/06 A302 RMK A01 T01320059  RH  061%=      5-min Rain = 0
KDO1 052058Z 01013G20KT 13/06 A302 RMK A01 T01340062  RH  061%=      5-min Rain = 0
KDO1 052059Z 01020KT 14/06 A302 RMK A01 T01360059  RH  060%=      5-min Rain = 0
KDO1 052100Z 02018G23KT 13/06 A302 RMK A01 T01340058  RH  060%=      5-min Rain = 0
KDO1 052101Z 02014G21KT 13/06 A302 RMK A01 T01330059  RH  061%=      5-min Rain = 0
KDO1 052102Z 02016G25KT 13/06 A302 RMK A01 T01330059  RH  061%=      5-min Rain = 0
KDO1 052103Z 02020G26KT 13/06 A302 RMK A01 T01330058  RH  060%=      5-min Rain = 0
KDO1 052104Z 02017G22KT 13/06 A302 RMK A01 T01300056  RH  060%=      5-min Rain = 0
KDO1 052105Z 01019KT 13/06 A302 RMK A01 T01290055  RH  061%=      5-min Rain = 0
KDO1 052106Z 02019KT 13/05 A302 RMK A01 T01290054  RH  060%=      5-min Rain = 0
KDO1 052107Z 02018G24KT 13/05 A3021 RMK A01 T01280054  RH  060%=      5-min Rain = 0
KDO1 052108Z 02019KT 13/05 A3021 RMK A01 T01280053  RH  060%=      5-min Rain = 0
KDO1 052109Z 02015G21KT 13/05 A3021 RMK A01 T01260054  RH  062%=      5-min Rain = 0
KDO1 052110Z 02015G21KT 13/06 A3021 RMK A01 T01250055  RH  062%=      5-min Rain = 0
KDO1 052111Z 02012KT 13/06 A3021 RMK A01 T01260057  RH  063%=      5-min Rain = 0
KDO1 052112Z 03013KT 13/06 A3021 RMK A01 T01260057  RH  063%=      5-min Rain = 0
KDO1 052113Z 02014KT 13/06 A3021 RMK A01 T01260057  RH  063%=      5-min Rain = 0
KDO1 052114Z 03012G17KT 13/06 A3021 RMK A01 T01260057  RH  063%=      5-min Rain = 0
KDO1 052115Z 03013G18KT 13/06 A3021 RMK A01 T01270058  RH  063%=      5-min Rain = 0
KDO1 052116Z 02014KT 13/06 A3021 RMK A01 T01270057  RH  062%=      5-min Rain = 0
KDO1 052117Z 03017KT 13/06 A3021 RMK A01 T01280057  RH  062%=      5-min Rain = 0
KDO1 052118Z 03018G23KT 13/06 A3021 RMK A01 T01280056  RH  062%=      5-min Rain = 0
KDO1 052119Z 03020G25KT 13/06 A3022 RMK A01 T01280056  RH  061%=      5-min Rain = 0
KDO1 052120Z 02018G25KT 13/06 A3021 RMK A01 T01270055  RH  061%=      5-min Rain = 0
KDO1 052121Z 02017G22KT 13/06 A3021 RMK A01 T01270056  RH  062%=      5-min Rain = 0
KDO1 052122Z 02017G24KT 13/06 A3021 RMK A01 T01270056  RH  062%=      5-min Rain = 0
KDO1 052123Z 02017G23KT 13/06 A3021 RMK A01 T01270056  RH  062%=      5-min Rain = 0
KDO1 052124Z 02016KT 13/06 A3021 RMK A01 T01280056  RH  061%=      5-min Rain = 0
KDO1 052125Z 02016G22KT 13/06 A3021 RMK A01 T01290056  RH  061%=      5-min Rain = 0
KDO1 052126Z 02016KT 13/06 A3021 RMK A01 T01290057  RH  061%=      5-min Rain = 0
KDO1 052127Z 02017KT 13/06 A3022 RMK A01 T01280057  RH  062%=      5-min Rain = 0
KDO1 052128Z 02015G20KT 13/06 A3022 RMK A01 T01290057  RH  062%=      5-min Rain = 0
KDO1 052129Z 02014G19KT 13/06 A3021 RMK A01 T01290057  RH  061%=      5-min Rain = 0
KDO1 052130Z 03015KT 13/06 A3021 RMK A01 T01290056  RH  061%=      5-min Rain = 0
KDO1 052131Z 02013G18KT 13/06 A3021 RMK A01 T01290057  RH  061%=      5-min Rain = 0
KDO1 052132Z 01013KT 13/06 A3021 RMK A01 T01290057  RH  062%=      5-min Rain = 0
KDO1 052133Z 03011G16KT 13/06 A3021 RMK A01 T01320059  RH  061%=      5-min Rain = 0
KDO1 052134Z 04010KT 14/06 A3021 RMK A01 T01350060  RH  060%=      5-min Rain = 0
KDO1 052135Z 04015KT 14/06 A3021 RMK A01 T01370059  RH  059%=      5-min Rain = 0
KDO1 052136Z 03017G22KT 14/06 A3022 RMK A01 T01360058  RH  059%=      5-min Rain = 0
KDO1 052137Z 02015G21KT 13/06 A3022 RMK A01 T01340056  RH  059%=      5-min Rain = 0
KDO1 052138Z 03013G18KT 13/06 A3022 RMK A01 T01330056  RH  059%=      5-min Rain = 0
KDO1 052139Z 03013G19KT 13/06 A3022 RMK A01 T01340056  RH  059%=      5-min Rain = 0
KDO1 052140Z 02017KT 14/06 A3022 RMK A01 T01370056  RH  058%=      5-min Rain = 0
KDO1 052141Z 03018KT 14/05 A3022 RMK A01 T01380054  RH  057%=      5-min Rain = 0
KDO1 052142Z 02017KT 14/05 A3022 RMK A01 T01370054  RH  057%=      5-min Rain = 0
KDO1 052143Z 02017G23KT 14/05 A3022 RMK A01 T01370054  RH  057%=      5-min Rain = 0
KDO1 052144Z 03018KT 14/05 A3022 RMK A01 T01370054  RH  057%=      5-min Rain = 0
KDO1 052145Z 03017KT 14/06 A3022 RMK A01 T01380055  RH  057%=      5-min Rain = 0
KDO1 052146Z 02021G28KT 14/06 A3022 RMK A01 T01380055  RH  057%=      5-min Rain = 0
KDO1 052147Z 03022G27KT 14/05 A3022 RMK A01 T01380052  RH  056%=      5-min Rain = 0
KDO1 052148Z 02016KT 14/05 A3022 RMK A01 T01370053  RH  057%=      5-min Rain = 0
KDO1 052149Z 02017KT 14/05 A3022 RMK A01 T01390053  RH  056%=      5-min Rain = 0
KDO1 052150Z 02018KT 14/05 A3022 RMK A01 T01390052  RH  056%=      5-min Rain = 0
KDO1 052151Z 02015G20KT 14/05 A3022 RMK A01 T01380053  RH  056%=      5-min Rain = 0
KDO1 052152Z 02019G26KT 14/05 A3022 RMK A01 T01370051  RH  056%=      5-min Rain = 0
KDO1 052153Z 02019G24KT 14/05 A3022 RMK A01 T01360051  RH  056%=      5-min Rain = 0
KDO1 052154Z 02019KT 14/05 A3022 RMK A01 T01360052  RH  057%=      5-min Rain = 0
KDO1 052155Z 02013G18KT 14/05 A3022 RMK A01 T01360052  RH  057%=      5-min Rain = 0
KDO1 052156Z 02014KT 14/05 A3022 RMK A01 T01370052  RH  057%=      5-min Rain = 0
KDO1 052157Z 04018G24KT 14/05 A3022 RMK A01 T01370052  RH  056%=      5-min Rain = 0
KDO1 052158Z 04019KT 14/05 A3022 RMK A01 T01380052  RH  056%=      5-min Rain = 0
KDO1 052159Z 03016G21KT 14/05 A3022 RMK A01 T01380052  RH  056%=      5-min Rain = 0
KDO1 052200Z 03018KT 14/05 A3022 RMK A01 T01400053  RH  056%=      5-min Rain = 0
KDO1 052201Z 03018G23KT 14/05 A3022 RMK A01 T01410053  RH  055%=      5-min Rain = 0
KDO1 052202Z 03016KT 14/05 A3022 RMK A01 T01420053  RH  055%=      5-min Rain = 0
KDO1 052203Z 02017KT 14/05 A3022 RMK A01 T01430054  RH  055%=      5-min Rain = 0
KDO1 052204Z 02019G24KT 14/05 A3022 RMK A01 T01430052  RH  054%=      5-min Rain = 0
KDO1 052205Z 04019KT 14/05 A3022 RMK A01 T01430052  RH  054%=      5-min Rain = 0
KDO1 052206Z 04016KT 14/05 A3022 RMK A01 T01420051  RH  054%=      5-min Rain = 0
KDO1 052207Z 04017G24KT 14/05 A3022 RMK A01 T01420052  RH  055%=      5-min Rain = 0
KDO1 052208Z 03015G23KT 14/05 A3022 RMK A01 T01430053  RH  055%=      5-min Rain = 0
KDO1 052209Z 03018G25KT 15/05 A3022 RMK A01 T01450052  RH  054%=      5-min Rain = 0
KDO1 052210Z 03021G26KT 14/05 A3022 RMK A01 T01430050  RH  054%=      5-min Rain = 0
KDO1 052211Z 03020G25KT 14/05 A3022 RMK A01 T01410050  RH  054%=      5-min Rain = 0
KDO1 052212Z 04021G26KT 14/05 A3022 RMK A01 T01410050  RH  054%=      5-min Rain = 0
KDO1 052213Z 04018KT 14/05 A3022 RMK A01 T01400050  RH  055%=      5-min Rain = 0
KDO1 052214Z 04017KT 14/05 A3022 RMK A01 T01390051  RH  055%=      5-min Rain = 0
KDO1 052215Z 03015G21KT 14/05 A3022 RMK A01 T01400053  RH  056%=      5-min Rain = 0
KDO1 052216Z 04014KT 14/05 A3022 RMK A01 T01410053  RH  055%=      5-min Rain = 0
KDO1 052217Z 02012G18KT 14/05 A3022 RMK A01 T01420053  RH  055%=      5-min Rain = 0
KDO1 052218Z 02014G22KT 14/05 A3022 RMK A01 T01440054  RH  055%=      5-min Rain = 0
KDO1 052219Z 03018KT 15/05 A3022 RMK A01 T01450053  RH  054%=      5-min Rain = 0
KDO1 052220Z 03017G22KT 14/05 A3022 RMK A01 T01440053  RH  054%=      5-min Rain = 0
KDO1 052221Z 03016KT 14/05 A3022 RMK A01 T01420053  RH  055%=      5-min Rain = 0
KDO1 052222Z 04015G20KT 14/05 A3022 RMK A01 T01410052  RH  055%=      5-min Rain = 0
KDO1 052223Z 04016KT 14/05 A3022 RMK A01 T01390053  RH  056%=      5-min Rain = 0
KDO1 052224Z 02013G18KT 14/05 A3022 RMK A01 T01400054  RH  056%=      5-min Rain = 0
KDO1 052225Z 04017G23KT 14/06 A3022 RMK A01 T01420055  RH  056%=      5-min Rain = 0
KDO1 052226Z 04014G19KT 14/06 A3022 RMK A01 T01430055  RH  055%=      5-min Rain = 0
KDO1 052227Z 04015KT 14/06 A3022 RMK A01 T01440055  RH  055%=      5-min Rain = 0
KDO1 052228Z 03015KT 14/06 A3022 RMK A01 T01440055  RH  055%=      5-min Rain = 0
KDO1 052229Z 03014G20KT 14/06 A3022 RMK A01 T01440055  RH  055%=      5-min Rain = 0
KDO1 052230Z 04015KT 15/06 A3022 RMK A01 T01450056  RH  055%=      5-min Rain = 0
KDO1 052231Z 04015KT 15/06 A3022 RMK A01 T01460056  RH  055%=      5-min Rain = 0
KDO1 052232Z 03014KT 15/05 A3023 RMK A01 T01460054  RH  054%=      5-min Rain = 0
KDO1 052233Z 04011KT 14/05 A3023 RMK A01 T01440054  RH  055%=      5-min Rain = 0
KDO1 052234Z 04015G22KT 14/06 A3023 RMK A01 T01440055  RH  055%=      5-min Rain = 0
KDO1 052235Z 04015KT 14/05 A3023 RMK A01 T01440054  RH  055%=      5-min Rain = 0
KDO1 052236Z 04017KT 14/05 A3023 RMK A01 T01440054  RH  055%=      5-min Rain = 0
KDO1 052237Z 03016G21KT 14/05 A3023 RMK A01 T01440054  RH  055%=      5-min Rain = 0
KDO1 052238Z 03013G18KT 14/05 A3023 RMK A01 T01440054  RH  055%=      5-min Rain = 0
KDO1 052239Z 04011KT 14/05 A3023 RMK A01 T01440054  RH  055%=      5-min Rain = 0
KDO1 052240Z 03013G18KT 14/05 A3023 RMK A01 T01420053  RH  055%=      5-min Rain = 0
KDO1 052241Z 03013G18KT 14/05 A3023 RMK A01 T01410052  RH  055%=      5-min Rain = 0
KDO1 052242Z 02011KT 14/05 A3022 RMK A01 T01400054  RH  056%=      5-min Rain = 0
KDO1 052243Z 02012KT 14/06 A3022 RMK A01 T01420055  RH  056%=      5-min Rain = 0
KDO1 052244Z 02012KT 14/06 A3022 RMK A01 T01430055  RH  055%=      5-min Rain = 0
KDO1 052245Z 02013KT 14/06 A3022 RMK A01 T01430055  RH  055%=      5-min Rain = 0
KDO1 052246Z 02012KT 14/06 A3022 RMK A01 T01430055  RH  056%=      5-min Rain = 0
KDO1 052247Z 02012KT 14/06 A3022 RMK A01 T01430056  RH  056%=      5-min Rain = 0
KDO1 052248Z 01012G18KT 14/06 A3022 RMK A01 T01430055  RH  055%=      5-min Rain = 0
KDO1 052249Z 02014KT 14/06 A3022 RMK A01 T01440056  RH  055%=      5-min Rain = 0
KDO1 052250Z 04013G19KT 15/06 A3022 RMK A01 T01460057  RH  055%=      5-min Rain = 0
KDO1 052251Z 05015KT 15/06 A3023 RMK A01 T01460056  RH  054%=      5-min Rain = 0
KDO1 052252Z 05013G18KT 15/06 A3023 RMK A01 T01460056  RH  055%=      5-min Rain = 0
KDO1 052253Z 04013KT 15/06 A3023 RMK A01 T01460057  RH  055%=      5-min Rain = 0
KDO1 052254Z 03016KT 15/06 A3023 RMK A01 T01460057  RH  055%=      5-min Rain = 0
KDO1 052255Z 03019KT 15/06 A3023 RMK A01 T01460055  RH  054%=      5-min Rain = 0
KDO1 052256Z 03017KT 14/05 A3023 RMK A01 T01440053  RH  054%=      5-min Rain = 0
KDO1 052257Z 03018KT 14/05 A3023 RMK A01 T01410053  RH  055%=      5-min Rain = 0
KDO1 052258Z 04016KT 14/05 A3023 RMK A01 T01390053  RH  056%=      5-min Rain = 0
KDO1 052259Z 04015KT 14/05 A3023 RMK A01 T01370053  RH  057%=      5-min Rain = 0
KDO1 052300Z 03010G16KT 14/05 A3023 RMK A01 T01370053  RH  057%=      5-min Rain = 0
KDO1 052301Z 04014KT 14/05 A3023 RMK A01 T01360053  RH  057%=      5-min Rain = 0
KDO1 052302Z 04015KT 14/05 A3023 RMK A01 T01350052  RH  057%=      5-min Rain = 0
KDO1 052303Z 03012G19KT 13/05 A3023 RMK A01 T01340052  RH  058%=      5-min Rain = 0
KDO1 052304Z 04011KT 13/05 A3023 RMK A01 T01330052  RH  058%=      5-min Rain = 0
KDO1 052305Z 03012KT 13/05 A3023 RMK A01 T01340053  RH  058%=      5-min Rain = 0
KDO1 052306Z 03011KT 14/05 A3023 RMK A01 T01360054  RH  058%=      5-min Rain = 0
KDO1 052307Z 03011KT 14/06 A3023 RMK A01 T01370055  RH  057%=      5-min Rain = 0
KDO1 052308Z 03008KT 14/06 A3023 RMK A01 T01390056  RH  057%=      5-min Rain = 0
KDO1 052309Z 03012KT 14/06 A3023 RMK A01 T01410056  RH  056%=      5-min Rain = 0
KDO1 052310Z 03012KT 14/06 A3023 RMK A01 T01420056  RH  056%=      5-min Rain = 0
KDO1 052311Z 03011KT 14/06 A3023 RMK A01 T01430056  RH  056%=      5-min Rain = 0
KDO1 052312Z 03010KT 15/06 A3023 RMK A01 T01450057  RH  056%=      5-min Rain = 0
KDO1 052313Z 04011KT 15/06 A3023 RMK A01 T01460058  RH  055%=      5-min Rain = 0
KDO1 052314Z 04013KT 15/06 A3023 RMK A01 T01470058  RH  055%=      5-min Rain = 0
KDO1 052315Z 04010KT 15/06 A3023 RMK A01 T01470057  RH  055%=      5-min Rain = 0
KDO1 052316Z 03013KT 15/06 A3023 RMK A01 T01470058  RH  055%=      5-min Rain = 0
KDO1 052317Z 04013KT 15/06 A3023 RMK A01 T01470058  RH  055%=      5-min Rain = 0
KDO1 052318Z 03015KT 15/06 A3023 RMK A01 T01470057  RH  055%=      5-min Rain = 0
KDO1 052319Z 04015KT 15/06 A3023 RMK A01 T01460057  RH  055%=      5-min Rain = 0
KDO1 052320Z 04015KT 15/06 A3023 RMK A01 T01450057  RH  056%=      5-min Rain = 0
KDO1 052321Z 05015KT 14/06 A3023 RMK A01 T01430057  RH  056%=      5-min Rain = 0
KDO1 052322Z 05014KT 14/06 A3023 RMK A01 T01420057  RH  056%=      5-min Rain = 0
KDO1 052323Z 04012G17KT 14/06 A3023 RMK A01 T01410057  RH  057%=      5-min Rain = 0
KDO1 052324Z 05013KT 14/06 A3023 RMK A01 T01400057  RH  057%=      5-min Rain = 0
KDO1 052325Z 04014KT 14/06 A3023 RMK A01 T01390056  RH  057%=      5-min Rain = 0
KDO1 052326Z 05011KT 14/06 A3023 RMK A01 T01380056  RH  058%=      5-min Rain = 0
KDO1 052327Z 05010G16KT 14/06 A3024 RMK A01 T01380057  RH  058%=      5-min Rain = 0
KDO1 052328Z 04014G19KT 14/06 A3024 RMK A01 T01370057  RH  059%=      5-min Rain = 0
KDO1 052329Z 04012KT 14/06 A3024 RMK A01 T01360057  RH  059%=      5-min Rain = 0
KDO1 052330Z 04011KT 14/06 A3024 RMK A01 T01350058  RH  059%=      5-min Rain = 0
KDO1 052331Z 05014KT 13/06 A3024 RMK A01 T01340057  RH  060%=      5-min Rain = 0
KDO1 052332Z 05014KT 13/06 A3024 RMK A01 T01340058  RH  060%=      5-min Rain = 0
KDO1 052333Z 05015KT 13/06 A3024 RMK A01 T01330057  RH  060%=      5-min Rain = 0
KDO1 052334Z 05014KT 13/06 A3024 RMK A01 T01320057  RH  060%=      5-min Rain = 0
KDO1 052335Z 05015KT 13/06 A3024 RMK A01 T01310057  RH  061%=      5-min Rain = 0
KDO1 052336Z 05015KT 13/06 A3024 RMK A01 T01310057  RH  061%=      5-min Rain = 0
KDO1 052337Z 05011G16KT 13/06 A3024 RMK A01 T01300057  RH  061%=      5-min Rain = 0
KDO1 052338Z 05013KT 13/06 A3024 RMK A01 T01300057  RH  061%=      5-min Rain = 0
KDO1 052339Z 05011KT 13/06 A3024 RMK A01 T01290057  RH  062%=      5-min Rain = 0
KDO1 052340Z 05012KT 13/06 A3024 RMK A01 T01290058  RH  062%=      5-min Rain = 0
KDO1 052341Z 05012KT 13/06 A3024 RMK A01 T01280057  RH  062%=      5-min Rain = 0
KDO1 052342Z 05013KT 13/06 A3025 RMK A01 T01280057  RH  062%=      5-min Rain = 0
KDO1 052343Z 04011KT 13/06 A3025 RMK A01 T01280057  RH  062%=      5-min Rain = 0
KDO1 052344Z 04010KT 13/06 A3024 RMK A01 T01280057  RH  062%=      5-min Rain = 0
KDO1 052345Z 05010KT 13/06 A3025 RMK A01 T01270057  RH  062%=      5-min Rain = 0
KDO1 052346Z 04010KT 13/06 A3025 RMK A01 T01270058  RH  063%=      5-min Rain = 0
KDO1 052347Z 05011KT 13/06 A3025 RMK A01 T01270058  RH  063%=      5-min Rain = 0
KDO1 052348Z 04010KT 13/06 A3025 RMK A01 T01270057  RH  063%=      5-min Rain = 0
KDO1 052349Z 04009KT 13/06 A3025 RMK A01 T01270058  RH  063%=      5-min Rain = 0
KDO1 052350Z 03009KT 13/06 A3025 RMK A01 T01260057  RH  063%=      5-min Rain = 0
KDO1 052351Z 02008KT 13/06 A3025 RMK A01 T01260058  RH  063%=      5-min Rain = 0
KDO1 052352Z 03009KT 13/06 A3025 RMK A01 T01260057  RH  063%=      5-min Rain = 0
KDO1 052353Z 03010KT 13/06 A3025 RMK A01 T01260058  RH  063%=      5-min Rain = 0
KDO1 052354Z 03011KT 13/06 A3025 RMK A01 T01250057  RH  063%=      5-min Rain = 0
KDO1 052355Z 04011KT 13/06 A3025 RMK A01 T01250057  RH  063%=      5-min Rain = 0
KDO1 052356Z 04011KT 13/06 A3025 RMK A01 T01250057  RH  063%=      5-min Rain = 0
KDO1 052357Z 03010KT 13/06 A3025 RMK A01 T01250057  RH  063%=      5-min Rain = 0
KDO1 052358Z 04008KT 13/06 A3025 RMK A01 T01250057  RH  063%=      5-min Rain = 0
KDO1 052359Z 04006KT 12/06 A3025 RMK A01 T01240057  RH  064%=      5-min Rain = 0
KDO1 060000Z 04008KT 12/06 A3025 RMK A01 T01240057  RH  064%=      5-min Rain = 0
KDO1 060001Z 03009KT 12/06 A3025 RMK A01 T01230057  RH  064%=      5-min Rain = 0
KDO1 060002Z 04007KT 12/06 A3025 RMK A01 T01230057  RH  064%=      5-min Rain = 0
KDO1 060003Z 04006KT 12/06 A3025 RMK A01 T01230057  RH  064%=      5-min Rain = 0
KDO1 060004Z 04008KT 12/06 A3025 RMK A01 T01230057  RH  064%=      5-min Rain = 0
KDO1 060005Z 04007KT 12/06 A3025 RMK A01 T01230057  RH  064%=      5-min Rain = 0
KDO1 060006Z 04008KT 12/06 A3025 RMK A01 T01230056  RH  064%=      5-min Rain = 0
KDO1 060007Z 04008KT 12/06 A3025 RMK A01 T01230056  RH  064%=      5-min Rain = 0
KDO1 060008Z 04008KT 12/06 A3025 RMK A01 T01230056  RH  064%=      5-min Rain = 0
KDO1 060009Z 04009KT 12/06 A3025 RMK A01 T01230056  RH  064%=      5-min Rain = 0
KDO1 060010Z 04009KT 12/06 A3025 RMK A01 T01230056  RH  064%=      5-min Rain = 0
KDO1 060011Z 04009KT 12/06 A3025 RMK A01 T01230055  RH  063%=      5-min Rain = 0
KDO1 060012Z 04009KT 12/06 A3025 RMK A01 T01230055  RH  063%=      5-min Rain = 0
KDO1 060013Z 04009KT 12/06 A3025 RMK A01 T01230055  RH  063%=      5-min Rain = 0
KDO1 060014Z 04007KT 12/06 A3025 RMK A01 T01230055  RH  063%=      5-min Rain = 0
KDO1 060015Z 05006KT 12/06 A3025 RMK A01 T01230055  RH  064%=      5-min Rain = 0
KDO1 060016Z 05007KT 12/06 A3026 RMK A01 T01220055  RH  064%=      5-min Rain = 0
KDO1 060017Z 05006KT 12/06 A3026 RMK A01 T01220055  RH  064%=      5-min Rain = 0
KDO1 060018Z 05006KT 12/06 A3026 RMK A01 T01210055  RH  064%=      5-min Rain = 0
KDO1 060019Z 05006KT 12/06 A3026 RMK A01 T01210055  RH  064%=      5-min Rain = 0
KDO1 060020Z 05006KT 12/06 A3026 RMK A01 T01200055  RH  064%=      5-min Rain = 0
KDO1 060021Z 05007KT 12/06 A3026 RMK A01 T01200055  RH  064%=      5-min Rain = 0
KDO1 060022Z 05006KT 12/06 A3026 RMK A01 T01190055  RH  064%=      5-min Rain = 0
KDO1 060023Z 05009KT 12/06 A3026 RMK A01 T01200055  RH  064%=      5-min Rain = 0
KDO1 060024Z 05007KT 12/05 A3026 RMK A01 T01190054  RH  064%=      5-min Rain = 0
KDO1 060025Z 05007KT 12/05 A3026 RMK A01 T01190054  RH  064%=      5-min Rain = 0
KDO1 060026Z 05006KT 12/05 A3026 RMK A01 T01190054  RH  064%=      5-min Rain = 0
KDO1 060027Z 05005KT 12/05 A3026 RMK A01 T01180054  RH  065%=      5-min Rain = 0
KDO1 060028Z 05005KT 12/05 A3026 RMK A01 T01180054  RH  065%=      5-min Rain = 0
KDO1 060029Z 05006KT 12/05 A3026 RMK A01 T01170054  RH  065%=      5-min Rain = 0
KDO1 060030Z 05005KT 12/05 A3026 RMK A01 T01160054  RH  065%=      5-min Rain = 0
KDO1 060031Z 04007KT 12/05 A3026 RMK A01 T01160053  RH  066%=      5-min Rain = 0
KDO1 060032Z 04005KT 12/05 A3026 RMK A01 T01160054  RH  066%=      5-min Rain = 0
KDO1 060033Z 04005KT 12/05 A3026 RMK A01 T01160053  RH  066%=      5-min Rain = 0
KDO1 060034Z 05005KT 12/05 A3026 RMK A01 T01150053  RH  066%=      5-min Rain = 0
KDO1 060035Z 04007KT 12/05 A3026 RMK A01 T01150053  RH  066%=      5-min Rain = 0
KDO1 060036Z 03006KT 12/05 A3026 RMK A01 T01150053  RH  065%=      5-min Rain = 0
KDO1 060037Z 05007KT 12/05 A3026 RMK A01 T01150053  RH  065%=      5-min Rain = 0
KDO1 060038Z 05007KT 12/05 A3026 RMK A01 T01150053  RH  066%=      5-min Rain = 0
KDO1 060039Z 05006KT 11/05 A3026 RMK A01 T01140053  RH  066%=      5-min Rain = 0
KDO1 060040Z 04006KT 11/05 A3026 RMK A01 T01140053  RH  066%=      5-min Rain = 0
KDO1 060041Z 04006KT 11/05 A3027 RMK A01 T01130052  RH  066%=      5-min Rain = 0
KDO1 060042Z 05006KT 11/05 A3027 RMK A01 T01120052  RH  066%=      5-min Rain = 0
KDO1 060043Z 04006KT 11/05 A3027 RMK A01 T01120052  RH  067%=      5-min Rain = 0
KDO1 060044Z 05006KT 11/05 A3027 RMK A01 T01120053  RH  067%=      5-min Rain = 0
KDO1 060045Z 05005KT 11/05 A3027 RMK A01 T01110052  RH  067%=      5-min Rain = 0
KDO1 060046Z 05006KT 11/05 A3027 RMK A01 T01110052  RH  067%=      5-min Rain = 0
KDO1 060047Z 05006KT 11/05 A3027 RMK A01 T01100052  RH  068%=      5-min Rain = 0
KDO1 060048Z 05006KT 11/05 A3027 RMK A01 T01100052  RH  068%=      5-min Rain = 0
KDO1 060049Z 05006KT 11/05 A3027 RMK A01 T01090052  RH  068%=      5-min Rain = 0
KDO1 060050Z 05006KT 11/05 A3027 RMK A01 T01080052  RH  068%=      5-min Rain = 0
KDO1 060051Z 05005KT 11/05 A3027 RMK A01 T01080052  RH  068%=      5-min Rain = 0
KDO1 060052Z 06006KT 11/05 A3027 RMK A01 T01070052  RH  069%=      5-min Rain = 0
KDO1 060053Z 06006KT 11/05 A3027 RMK A01 T01060052  RH  069%=      5-min Rain = 0
KDO1 060054Z 06006KT 11/05 A3027 RMK A01 T01060052  RH  069%=      5-min Rain = 0
KDO1 060055Z 06006KT 11/05 A3027 RMK A01 T01050051  RH  069%=      5-min Rain = 0
KDO1 060056Z 05006KT 10/05 A3027 RMK A01 T01040051  RH  070%=      5-min Rain = 0
KDO1 060057Z 06005KT 10/05 A3027 RMK A01 T01040052  RH  070%=      5-min Rain = 0
KDO1 060058Z 06005KT 10/05 A3027 RMK A01 T01040051  RH  070%=      5-min Rain = 0
KDO1 060059Z 06005KT 10/05 A3027 RMK A01 T01030051  RH  070%=      5-min Rain = 0
KDO1 060100Z 06005KT 10/05 A3027 RMK A01 T01030051  RH  070%=      5-min Rain = 0
KDO1 060101Z 06005KT 10/05 A3027 RMK A01 T01020051  RH  070%=      5-min Rain = 0
KDO1 060102Z 05004KT 10/05 A3027 RMK A01 T01020051  RH  071%=      5-min Rain = 0
KDO1 060103Z 06004KT 10/05 A3027 RMK A01 T01020051  RH  071%=      5-min Rain = 0
KDO1 060104Z 06004KT 10/05 A3027 RMK A01 T01010051  RH  071%=      5-min Rain = 0
KDO1 060105Z 05004KT 10/05 A3028 RMK A01 T01000050  RH  071%=      5-min Rain = 0
KDO1 060106Z 05003KT 10/05 A3028 RMK A01 T00990050  RH  071%=      5-min Rain = 0
KDO1 060107Z 05004KT 10/05 A3028 RMK A01 T00990050  RH  072%=      5-min Rain = 0
KDO1 060108Z 05004KT 10/05 A3028 RMK A01 T00980050  RH  072%=      5-min Rain = 0
KDO1 060109Z 05004KT 10/05 A3028 RMK A01 T00970049  RH  072%=      5-min Rain = 0
KDO1 060110Z 05004KT 10/05 A3028 RMK A01 T00970049  RH  072%=      5-min Rain = 0
KDO1 060111Z 05004KT 10/05 A3028 RMK A01 T00970049  RH  072%=      5-min Rain = 0
KDO1 060112Z 05004KT 10/05 A3028 RMK A01 T00970050  RH  072%=      5-min Rain = 0
KDO1 060113Z 05004KT 10/05 A3028 RMK A01 T00960049  RH  072%=      5-min Rain = 0
KDO1 060114Z 05004KT 10/05 A3028 RMK A01 T00970049  RH  072%=      5-min Rain = 0
KDO1 060115Z 05004KT 10/05 A3028 RMK A01 T00960049  RH  072%=      5-min Rain = 0
KDO1 060116Z 05004KT 10/05 A3028 RMK A01 T00960049  RH  073%=      5-min Rain = 0
KDO1 060117Z 05004KT 10/05 A3028 RMK A01 T00950048  RH  073%=      5-min Rain = 0
KDO1 060118Z 05004KT 09/05 A3028 RMK A01 T00940048  RH  073%=      5-min Rain = 0
KDO1 060119Z 05004KT 09/05 A3028 RMK A01 T00940048  RH  073%=      5-min Rain = 0
KDO1 060120Z 05004KT 09/05 A3028 RMK A01 T00940048  RH  073%=      5-min Rain = 0
KDO1 060121Z 05004KT 09/05 A3028 RMK A01 T00940049  RH  073%=      5-min Rain = 0
KDO1 060122Z 05004KT 09/05 A3028 RMK A01 T00930048  RH  073%=      5-min Rain = 0
KDO1 060123Z 05004KT 09/05 A3028 RMK A01 T00930048  RH  073%=      5-min Rain = 0
KDO1 060124Z 05004KT 09/05 A3028 RMK A01 T00930048  RH  074%=      5-min Rain = 0
KDO1 060125Z 05004KT 09/05 A3028 RMK A01 T00930048  RH  074%=      5-min Rain = 0
KDO1 060126Z 05004KT 09/05 A3028 RMK A01 T00930048  RH  074%=      5-min Rain = 0
KDO1 060127Z 05004KT 09/05 A3028 RMK A01 T00930049  RH  074%=      5-min Rain = 0
KDO1 060128Z 05003KT 09/05 A3028 RMK A01 T00930049  RH  074%=      5-min Rain = 0
KDO1 060129Z 05003KT 09/05 A3028 RMK A01 T00920048  RH  074%=      5-min Rain = 0
KDO1 060130Z 05003KT 09/05 A3028 RMK A01 T00920049  RH  074%=      5-min Rain = 0
KDO1 060131Z 05003KT 09/05 A3028 RMK A01 T00920048  RH  074%=      5-min Rain = 0
KDO1 060132Z 05003KT 09/05 A3028 RMK A01 T00910048  RH  074%=      5-min Rain = 0
KDO1 060133Z 05003KT 09/05 A3028 RMK A01 T00900047  RH  074%=      5-min Rain = 0
KDO1 060134Z 06003KT 09/05 A3028 RMK A01 T00890046  RH  074%=      5-min Rain = 0
KDO1 060135Z 06003KT 09/05 A3028 RMK A01 T00880046  RH  075%=      5-min Rain = 0
KDO1 060136Z 06002KT 09/05 A3028 RMK A01 T00880047  RH  075%=      5-min Rain = 0
KDO1 060137Z 06002KT 09/05 A3028 RMK A01 T00880046  RH  075%=      5-min Rain = 0
KDO1 060138Z 07002KT 09/05 A3028 RMK A01 T00870045  RH  075%=      5-min Rain = 0
KDO1 060139Z 07002KT 09/04 A3028 RMK A01 T00870044  RH  075%=      5-min Rain = 0
KDO1 060140Z 07001KT 09/04 A3028 RMK A01 T00850044  RH  075%=      5-min Rain = 0
KDO1 060141Z 06001KT 08/04 A3028 RMK A01 T00840042  RH  075%=      5-min Rain = 0
KDO1 060142Z 06001KT 08/04 A3028 RMK A01 T00830040  RH  074%=      5-min Rain = 0
KDO1 060143Z 06001KT 08/04 A3028 RMK A01 T00810039  RH  075%=      5-min Rain = 0
KDO1 060144Z 06001KT 08/04 A3028 RMK A01 T00790040  RH  076%=      5-min Rain = 0
KDO1 060145Z 06000KT 08/04 A3028 RMK A01 T00790041  RH  077%=      5-min Rain = 0
KDO1 060146Z 00000KT 08/04 A3028 RMK A01 T00780038  RH  076%=      5-min Rain = 0
KDO1 060147Z 00000KT 08/04 A3028 RMK A01 T00770040  RH  077%=      5-min Rain = 0
KDO1 060148Z 00000KT 08/04 A3028 RMK A01 T00760040  RH  078%=      5-min Rain = 0
KDO1 060149Z 00000KT 08/04 A3028 RMK A01 T00760040  RH  078%=      5-min Rain = 0
KDO1 060150Z 00000KT 08/04 A3028 RMK A01 T00760041  RH  079%=      5-min Rain = 0
KDO1 060151Z 26000KT 08/04 A3028 RMK A01 T00760042  RH  079%=      5-min Rain = 0
KDO1 060152Z 26000KT 08/04 A3029 RMK A01 T00750042  RH  080%=      5-min Rain = 0
KDO1 060153Z 23000KT 08/04 A3029 RMK A01 T00750042  RH  080%=      5-min Rain = 0
KDO1 060154Z 00000KT 08/04 A3029 RMK A01 T00750043  RH  080%=      5-min Rain = 0
KDO1 060155Z 24000KT 07/04 A3029 RMK A01 T00740040  RH  079%=      5-min Rain = 0
KDO1 060156Z 24000KT 07/04 A3029 RMK A01 T00740041  RH  079%=      5-min Rain = 0
KDO1 060157Z 24000KT 07/04 A3029 RMK A01 T00740040  RH  079%=      5-min Rain = 0
KDO1 060158Z 00000KT 07/04 A3029 RMK A01 T00740042  RH  080%=      5-min Rain = 0
KDO1 060159Z 00000KT 08/04 A3029 RMK A01 T00750041  RH  079%=      5-min Rain = 0
KDO1 060200Z 00000KT 07/04 A3029 RMK A01 T00740035  RH  077%=      5-min Rain = 0
KDO1 060201Z 00000KT 07/04 A3029 RMK A01 T00720040  RH  080%=      5-min Rain = 0
KDO1 060202Z 00000KT 07/04 A3029 RMK A01 T00730042  RH  081%=      5-min Rain = 0
KDO1 060203Z 00000KT 07/04 A3029 RMK A01 T00730037  RH  078%=      5-min Rain = 0
KDO1 060204Z 00000KT 07/04 A3029 RMK A01 T00710036  RH  079%=      5-min Rain = 0
KDO1 060205Z 00000KT 07/04 A3029 RMK A01 T00700039  RH  081%=      5-min Rain = 0
KDO1 060206Z 02000KT 07/04 A3029 RMK A01 T00710041  RH  082%=      5-min Rain = 0
KDO1 060207Z 03001KT 07/04 A3029 RMK A01 T00720042  RH  081%=      5-min Rain = 0
KDO1 060208Z 09000KT 07/05 A3029 RMK A01 T00740045  RH  082%=      5-min Rain = 0
KDO1 060209Z 00000KT 08/04 A3029 RMK A01 T00750043  RH  080%=      5-min Rain = 0
KDO1 060210Z 00000KT 08/05 A3029 RMK A01 T00760045  RH  081%=      5-min Rain = 0
KDO1 060211Z 06000KT 08/04 A3029 RMK A01 T00770044  RH  079%=      5-min Rain = 0
KDO1 060212Z 06001KT 08/04 A3029 RMK A01 T00770042  RH  078%=      5-min Rain = 0
KDO1 060213Z 08001KT 08/04 A3029 RMK A01 T00770044  RH  080%=      5-min Rain = 0
KDO1 060214Z 08001KT 08/05 A3029 RMK A01 T00780045  RH  080%=      5-min Rain = 0
KDO1 060215Z 08001KT 08/04 A3029 RMK A01 T00790043  RH  078%=      5-min Rain = 0
KDO1 060216Z 09001KT 08/04 A3029 RMK A01 T00780043  RH  078%=      5-min Rain = 0
KDO1 060217Z 07001KT 08/04 A3029 RMK A01 T00780040  RH  077%=      5-min Rain = 0
KDO1 060218Z 08001KT 08/04 A3029 RMK A01 T00760041  RH  078%=      5-min Rain = 0
KDO1 060219Z 00000KT 08/04 A3029 RMK A01 T00760041  RH  079%=      5-min Rain = 0
KDO1 060220Z 09000KT 08/04 A3029 RMK A01 T00760043  RH  080%=      5-min Rain = 0
KDO1 060221Z 08000KT 08/05 A3029 RMK A01 T00760045  RH  081%=      5-min Rain = 0
KDO1 060222Z 08000KT 08/05 A3029 RMK A01 T00770046  RH  081%=      5-min Rain = 0
KDO1 060223Z 08001KT 08/05 A303 RMK A01 T00780046  RH  080%=      5-min Rain = 0
KDO1 060224Z 07001KT 08/05 A303 RMK A01 T00790045  RH  079%=      5-min Rain = 0
KDO1 060225Z 07001KT 08/04 A303 RMK A01 T00790044  RH  079%=      5-min Rain = 0
KDO1 060226Z 06001KT 08/04 A303 RMK A01 T00790044  RH  079%=      5-min Rain = 0
KDO1 060227Z 06001KT 08/05 A303 RMK A01 T00790045  RH  079%=      5-min Rain = 0
KDO1 060228Z 06001KT 08/05 A303 RMK A01 T00790045  RH  079%=      5-min Rain = 0
KDO1 060229Z 05001KT 08/05 A303 RMK A01 T00790046  RH  079%=      5-min Rain = 0
KDO1 060230Z 05002KT 08/05 A303 RMK A01 T00790046  RH  079%=      5-min Rain = 0
KDO1 060231Z 04002KT 08/05 A303 RMK A01 T00800046  RH  079%=      5-min Rain = 0
KDO1 060232Z 04002KT 08/05 A303 RMK A01 T00790046  RH  079%=      5-min Rain = 0
KDO1 060233Z 05003KT 08/05 A303 RMK A01 T00800047  RH  080%=      5-min Rain = 0
KDO1 060234Z 04003KT 08/05 A303 RMK A01 T00790046  RH  080%=      5-min Rain = 0
KDO1 060235Z 04003KT 08/05 A303 RMK A01 T00790046  RH  080%=      5-min Rain = 0
KDO1 060236Z 04003KT 08/05 A303 RMK A01 T00790046  RH  080%=      5-min Rain = 0
KDO1 060237Z 03003KT 08/05 A303 RMK A01 T00800046  RH  079%=      5-min Rain = 0
KDO1 060238Z 03003KT 08/05 A303 RMK A01 T00800046  RH  079%=      5-min Rain = 0
KDO1 060239Z 04003KT 08/05 A303 RMK A01 T00800047  RH  079%=      5-min Rain = 0
KDO1 060240Z 04004KT 08/05 A303 RMK A01 T00810047  RH  079%=      5-min Rain = 0
KDO1 060241Z 04003KT 08/05 A303 RMK A01 T00810047  RH  079%=      5-min Rain = 0
KDO1 060242Z 04003KT 08/05 A303 RMK A01 T00810046  RH  079%=      5-min Rain = 0
KDO1 060243Z 03004KT 08/05 A303 RMK A01 T00820047  RH  079%=      5-min Rain = 0
KDO1 060244Z 02003KT 08/05 A303 RMK A01 T00820046  RH  078%=      5-min Rain = 0
KDO1 060245Z 02004KT 08/05 A303 RMK A01 T00810045  RH  078%=      5-min Rain = 0
KDO1 060246Z 02004KT 08/04 A303 RMK A01 T00790043  RH  078%=      5-min Rain = 0
KDO1 060247Z 02004KT 08/04 A303 RMK A01 T00770043  RH  079%=      5-min Rain = 0
KDO1 060248Z 02004KT 08/04 A3031 RMK A01 T00760044  RH  080%=      5-min Rain = 0
KDO1 060249Z 02004KT 08/04 A3031 RMK A01 T00760044  RH  080%=      5-min Rain = 0
KDO1 060250Z 02004KT 08/04 A3031 RMK A01 T00750042  RH  080%=      5-min Rain = 0
KDO1 060251Z 02004KT 07/04 A3031 RMK A01 T00740044  RH  081%=      5-min Rain = 0
KDO1 060252Z 01004KT 07/04 A3031 RMK A01 T00740043  RH  081%=      5-min Rain = 0
KDO1 060253Z 01004KT 07/04 A3031 RMK A01 T00740043  RH  081%=      5-min Rain = 0
KDO1 060254Z 01004KT 07/04 A3031 RMK A01 T00740044  RH  082%=      5-min Rain = 0
KDO1 060255Z 01004KT 07/04 A3031 RMK A01 T00740044  RH  081%=      5-min Rain = 0
KDO1 060256Z 02004KT 07/04 A3031 RMK A01 T00730044  RH  081%=      5-min Rain = 0
KDO1 060257Z 01004KT 07/04 A3031 RMK A01 T00730042  RH  081%=      5-min Rain = 0
KDO1 060258Z 01004KT 07/04 A3031 RMK A01 T00720042  RH  081%=      5-min Rain = 0
KDO1 060259Z 01004KT 07/04 A3031 RMK A01 T00720042  RH  081%=      5-min Rain = 0
KDO1 060300Z 01004KT 07/04 A3031 RMK A01 T00710041  RH  081%=      5-min Rain = 0
KDO1 060301Z 01004KT 07/04 A3031 RMK A01 T00690038  RH  081%=      5-min Rain = 0
KDO1 060302Z 00004KT 07/04 A3031 RMK A01 T00670038  RH  082%=      5-min Rain = 0
KDO1 060303Z 01004KT 07/04 A3031 RMK A01 T00660040  RH  083%=      5-min Rain = 0
KDO1 060304Z 00004KT 07/04 A3031 RMK A01 T00660040  RH  083%=      5-min Rain = 0
KDO1 060305Z 00004KT 07/04 A3031 RMK A01 T00660040  RH  084%=      5-min Rain = 0
KDO1 060306Z 01004KT 07/04 A3031 RMK A01 T00660041  RH  084%=      5-min Rain = 0
KDO1 060307Z 01004KT 07/04 A3031 RMK A01 T00670042  RH  084%=      5-min Rain = 0
KDO1 060308Z 01004KT 07/04 A3031 RMK A01 T00670041  RH  083%=      5-min Rain = 0
KDO1 060309Z 01004KT 07/04 A3031 RMK A01 T00670040  RH  083%=      5-min Rain = 0
KDO1 060310Z 01004KT 07/04 A3031 RMK A01 T00670041  RH  084%=      5-min Rain = 0
KDO1 060311Z 01004KT 07/04 A3031 RMK A01 T00670042  RH  084%=      5-min Rain = 0
KDO1 060312Z 01004KT 07/04 A3031 RMK A01 T00680042  RH  084%=      5-min Rain = 0
KDO1 060313Z 01004KT 07/04 A3031 RMK A01 T00690043  RH  084%=      5-min Rain = 0
KDO1 060314Z 01004KT 07/04 A3031 RMK A01 T00690043  RH  084%=      5-min Rain = 0
KDO1 060315Z 01004KT 07/04 A3031 RMK A01 T00700043  RH  083%=      5-min Rain = 0
KDO1 060316Z 01004KT 07/04 A3031 RMK A01 T00690042  RH  083%=      5-min Rain = 0
KDO1 060317Z 01004KT 07/04 A3031 RMK A01 T00680041  RH  083%=      5-min Rain = 0
KDO1 060318Z 01004KT 07/04 A3031 RMK A01 T00670041  RH  084%=      5-min Rain = 0
KDO1 060319Z 01004KT 07/04 A3031 RMK A01 T00660041  RH  084%=      5-min Rain = 0
KDO1 060320Z 00004KT 07/04 A3031 RMK A01 T00660041  RH  084%=      5-min Rain = 0
KDO1 060321Z 00004KT 07/04 A3031 RMK A01 T00660042  RH  085%=      5-min Rain = 0
KDO1 060322Z 00004KT 07/04 A3031 RMK A01 T00660041  RH  084%=      5-min Rain = 0
KDO1 060323Z 36004KT 07/04 A3031 RMK A01 T00650040  RH  084%=      5-min Rain = 0
KDO1 060324Z 36004KT 07/04 A3031 RMK A01 T00650040  RH  084%=      5-min Rain = 0
KDO1 060325Z 35004KT 06/04 A3031 RMK A01 T00640041  RH  085%=      5-min Rain = 0
KDO1 060326Z 35004KT 07/04 A3031 RMK A01 T00650041  RH  085%=      5-min Rain = 0
KDO1 060327Z 35004KT 07/04 A3031 RMK A01 T00650040  RH  084%=      5-min Rain = 0
KDO1 060328Z 35004KT 07/04 A3031 RMK A01 T00650040  RH  084%=      5-min Rain = 0
KDO1 060329Z 35004KT 06/04 A3031 RMK A01 T00640038  RH  084%=      5-min Rain = 0
KDO1 060330Z 35004KT 06/04 A3032 RMK A01 T00630037  RH  084%=      5-min Rain = 0
KDO1 060331Z 35004KT 06/04 A3032 RMK A01 T00620037  RH  084%=      5-min Rain = 0
KDO1 060332Z 35004KT 06/04 A3032 RMK A01 T00620038  RH  085%=      5-min Rain = 0
KDO1 060333Z 35004KT 06/04 A3032 RMK A01 T00620037  RH  085%=      5-min Rain = 0
KDO1 060334Z 35004KT 06/04 A3032 RMK A01 T00610038  RH  085%=      5-min Rain = 0
KDO1 060335Z 35004KT 06/04 A3032 RMK A01 T00610038  RH  085%=      5-min Rain = 0
KDO1 060336Z 35004KT 06/04 A3032 RMK A01 T00610039  RH  086%=      5-min Rain = 0
KDO1 060337Z 35004KT 06/04 A3032 RMK A01 T00620039  RH  085%=      5-min Rain = 0
KDO1 060338Z 35004KT 06/04 A3032 RMK A01 T00620039  RH  085%=      5-min Rain = 0
KDO1 060339Z 35004KT 06/04 A3032 RMK A01 T00620039  RH  085%=      5-min Rain = 0
KDO1 060340Z 35004KT 06/04 A3032 RMK A01 T00630040  RH  085%=      5-min Rain = 0
KDO1 060341Z 35004KT 06/04 A3032 RMK A01 T00630040  RH  085%=      5-min Rain = 0
KDO1 060342Z 35004KT 06/04 A3032 RMK A01 T00630040  RH  085%=      5-min Rain = 0
KDO1 060343Z 35004KT 06/04 A3032 RMK A01 T00630040  RH  085%=      5-min Rain = 0
KDO1 060344Z 36004KT 06/04 A3032 RMK A01 T00630039  RH  085%=      5-min Rain = 0
KDO1 060345Z 36004KT 06/04 A3032 RMK A01 T00630039  RH  085%=      5-min Rain = 0
KDO1 060346Z 35004KT 06/04 A3032 RMK A01 T00630040  RH  085%=      5-min Rain = 0
KDO1 060347Z 35004KT 06/04 A3032 RMK A01 T00630040  RH  085%=      5-min Rain = 0
KDO1 060348Z 35004KT 06/04 A3032 RMK A01 T00620038  RH  085%=      5-min Rain = 0
KDO1 060349Z 35004KT 06/04 A3032 RMK A01 T00620040  RH  086%=      5-min Rain = 0
KDO1 060350Z 35004KT 06/04 A3032 RMK A01 T00630043  RH  087%=      5-min Rain = 0
KDO1 060351Z 35004KT 06/04 A3032 RMK A01 T00640043  RH  086%=      5-min Rain = 0
KDO1 060352Z 35004KT 06/04 A3032 RMK A01 T00640042  RH  085%=      5-min Rain = 0
KDO1 060353Z 35004KT 06/04 A3032 RMK A01 T00640042  RH  086%=      5-min Rain = 0
KDO1 060354Z 35004KT 06/04 A3032 RMK A01 T00640042  RH  086%=      5-min Rain = 0
KDO1 060355Z 35004KT 06/04 A3032 RMK A01 T00640041  RH  085%=      5-min Rain = 0
KDO1 060356Z 35004KT 06/04 A3032 RMK A01 T00620039  RH  085%=      5-min Rain = 0
KDO1 060357Z 35004KT 06/04 A3032 RMK A01 T00610038  RH  085%=      5-min Rain = 0
KDO1 060358Z 35004KT 06/04 A3032 RMK A01 T00610039  RH  086%=      5-min Rain = 0
KDO1 060359Z 35004KT 06/04 A3032 RMK A01 T00600037  RH  085%=      5-min Rain = 0
KDO1 060400Z 35004KT 06/04 A3032 RMK A01 T00590035  RH  085%=      5-min Rain = 0
KDO1 060401Z 35004KT 06/03 A3032 RMK A01 T00570034  RH  085%=      5-min Rain = 0
KDO1 060402Z 35004KT 06/04 A3032 RMK A01 T00560035  RH  086%=      5-min Rain = 0
KDO1 060403Z 35004KT 06/04 A3032 RMK A01 T00550035  RH  087%=      5-min Rain = 0
KDO1 060404Z 35004KT 05/04 A3032 RMK A01 T00540036  RH  088%=      5-min Rain = 0
KDO1 060405Z 35004KT 05/04 A3032 RMK A01 T00540037  RH  089%=      5-min Rain = 0
KDO1 060406Z 35004KT 05/04 A3032 RMK A01 T00540037  RH  089%=      5-min Rain = 0
KDO1 060407Z 35004KT 05/04 A3032 RMK A01 T00530035  RH  088%=      5-min Rain = 0
KDO1 060408Z 35004KT 05/04 A3032 RMK A01 T00530035  RH  088%=      5-min Rain = 0
KDO1 060409Z 35004KT 05/04 A3032 RMK A01 T00530035  RH  088%=      5-min Rain = 0
KDO1 060410Z 35004KT 05/04 A3032 RMK A01 T00530035  RH  088%=      5-min Rain = 0
KDO1 060411Z 35004KT 05/04 A3032 RMK A01 T00520035  RH  088%=      5-min Rain = 0
KDO1 060412Z 35004KT 05/04 A3032 RMK A01 T00530035  RH  088%=      5-min Rain = 0
KDO1 060413Z 35004KT 05/04 A3032 RMK A01 T00530036  RH  089%=      5-min Rain = 0
KDO1 060414Z 35004KT 05/04 A3032 RMK A01 T00530037  RH  089%=      5-min Rain = 0
KDO1 060415Z 35004KT 05/04 A3032 RMK A01 T00530036  RH  088%=      5-min Rain = 0
KDO1 060416Z 34004KT 05/04 A3032 RMK A01 T00530036  RH  088%=      5-min Rain = 0
KDO1 060417Z 34004KT 05/04 A3032 RMK A01 T00530036  RH  089%=      5-min Rain = 0
KDO1 060418Z 34004KT 05/04 A3032 RMK A01 T00530035  RH  088%=      5-min Rain = 0
KDO1 060419Z 34004KT 05/03 A3032 RMK A01 T00510034  RH  088%=      5-min Rain = 0
KDO1 060420Z 34004KT 05/03 A3032 RMK A01 T00500032  RH  088%=      5-min Rain = 0
KDO1 060421Z 34003KT 05/03 A3032 RMK A01 T00470028  RH  088%=      5-min Rain = 0
KDO1 060422Z 33003KT 04/03 A3032 RMK A01 T00440027  RH  088%=      5-min Rain = 0
KDO1 060423Z 33003KT 04/03 A3032 RMK A01 T00420027  RH  090%=      5-min Rain = 0
KDO1 060424Z 34003KT 04/03 A3032 RMK A01 T00410028  RH  091%=      5-min Rain = 0
KDO1 060425Z 34003KT 04/03 A3032 RMK A01 T00400028  RH  091%=      5-min Rain = 0
KDO1 060426Z 34003KT 04/03 A3032 RMK A01 T00400028  RH  092%=      5-min Rain = 0
KDO1 060427Z 34004KT 04/03 A3032 RMK A01 T00400029  RH  093%=      5-min Rain = 0
KDO1 060428Z 34004KT 04/03 A3032 RMK A01 T00390029  RH  093%=      5-min Rain = 0
KDO1 060429Z 34004KT 04/03 A3032 RMK A01 T00390029  RH  093%=      5-min Rain = 0
KDO1 060430Z 34003KT 04/03 A3032 RMK A01 T00380027  RH  093%=      5-min Rain = 0
KDO1 060431Z 34003KT 04/03 A3032 RMK A01 T00370027  RH  093%=      5-min Rain = 0
KDO1 060432Z 34003KT 04/03 A3032 RMK A01 T00370027  RH  093%=      5-min Rain = 0
KDO1 060433Z 34003KT 04/03 A3032 RMK A01 T00360027  RH  094%=      5-min Rain = 0
KDO1 060434Z 34003KT 04/03 A3032 RMK A01 T00360026  RH  093%=      5-min Rain = 0
KDO1 060435Z 34003KT 04/03 A3032 RMK A01 T00350025  RH  093%=      5-min Rain = 0
KDO1 060436Z 34004KT 04/03 A3032 RMK A01 T00350026  RH  094%=      5-min Rain = 0
KDO1 060437Z 34003KT 04/03 A3032 RMK A01 T00350026  RH  094%=      5-min Rain = 0
KDO1 060438Z 33003KT 03/03 A3032 RMK A01 T00340025  RH  094%=      5-min Rain = 0
KDO1 060439Z 33003KT 03/03 A3033 RMK A01 T00340025  RH  094%=      5-min Rain = 0
KDO1 060440Z 33003KT 03/02 A3033 RMK A01 T00340024  RH  094%=      5-min Rain = 0
KDO1 060441Z 33003KT 03/02 A3033 RMK A01 T00330023  RH  093%=      5-min Rain = 0
KDO1 060442Z 33003KT 03/02 A3033 RMK A01 T00320024  RH  094%=      5-min Rain = 0
KDO1 060443Z 33003KT 03/03 A3033 RMK A01 T00320025  RH  095%=      5-min Rain = 0
KDO1 060444Z 32003KT 03/02 A3033 RMK A01 T00320024  RH  095%=      5-min Rain = 0
KDO1 060445Z 31002KT 03/02 A3033 RMK A01 T00320023  RH  094%=      5-min Rain = 0
KDO1 060446Z 30002KT 03/02 A3033 RMK A01 T00310021  RH  093%=      5-min Rain = 0
KDO1 060447Z 30002KT 03/02 A3033 RMK A01 T00300020  RH  094%=      5-min Rain = 0
KDO1 060448Z 30002KT 03/02 A3033 RMK A01 T00290021  RH  095%=      5-min Rain = 0
KDO1 060449Z 30003KT 03/02 A3033 RMK A01 T00290023  RH  096%=      5-min Rain = 0
KDO1 060450Z 30003KT 03/03 A3033 RMK A01 T00300025  RH  097%=      5-min Rain = 0
KDO1 060451Z 30003KT 03/03 A3033 RMK A01 T00300027  RH  098%=      5-min Rain = 0
KDO1 060452Z 30004KT 03/03 A3033 RMK A01 T00320030  RH  099%=      5-min Rain = 0
KDO1 060453Z 30004KT 03/03 A3033 RMK A01 T00340034  RH  100%=      5-min Rain = 0
KDO1 060454Z 30004KT 04/04 A3033 RMK A01 T00370037  RH  100%=      5-min Rain = 0
KDO1 060455Z 29004KT 04/04 A3033 RMK A01 T00380038  RH  100%=      5-min Rain = 0
KDO1 060456Z 30004KT 04/04 A3033 RMK A01 T00410041  RH  100%=      5-min Rain = 0
KDO1 060457Z 29004KT 04/04 A3033 RMK A01 T00420039  RH  098%=      5-min Rain = 0
KDO1 060458Z 29004KT 04/04 A3033 RMK A01 T00420037  RH  096%=      5-min Rain = 0
KDO1 060459Z 29005KT 04/04 A3033 RMK A01 T00420036  RH  096%=      5-min Rain = 0
KDO1 060500Z 29005KT 04/04 A3033 RMK A01 T00420035  RH  096%=      5-min Rain = 0
KDO1 060501Z 29005KT 04/04 A3033 RMK A01 T00420035  RH  095%=      5-min Rain = 0
KDO1 060502Z 29005KT 04/04 A3033 RMK A01 T00420036  RH  096%=      5-min Rain = 0
KDO1 060503Z 29005KT 04/04 A3033 RMK A01 T00420035  RH  096%=      5-min Rain = 0
KDO1 060504Z 29005KT 04/04 A3033 RMK A01 T00420036  RH  096%=      5-min Rain = 0
KDO1 060505Z 29006KT 04/04 A3033 RMK A01 T00420036  RH  096%=      5-min Rain = 0
KDO1 060506Z 29006KT 04/04 A3033 RMK A01 T00420036  RH  096%=      5-min Rain = 0
KDO1 060507Z 29006KT 04/04 A3033 RMK A01 T00420036  RH  096%=      5-min Rain = 0
KDO1 060508Z 29006KT 04/04 A3033 RMK A01 T00420036  RH  096%=      5-min Rain = 0
KDO1 060509Z 29006KT 04/04 A3033 RMK A01 T00420036  RH  096%=      5-min Rain = 0
KDO1 060510Z 29006KT 04/04 A3033 RMK A01 T00420036  RH  096%=      5-min Rain = 0
KDO1 060511Z 30007KT 04/04 A3033 RMK A01 T00420037  RH  096%=      5-min Rain = 0
KDO1 060512Z 29007KT 04/04 A3033 RMK A01 T00430038  RH  097%=      5-min Rain = 0
KDO1 060513Z 29007KT 04/04 A3033 RMK A01 T00440039  RH  096%=      5-min Rain = 0
KDO1 060514Z 30007KT 05/04 A3033 RMK A01 T00450039  RH  096%=      5-min Rain = 0
KDO1 060515Z 29007KT 05/04 A3033 RMK A01 T00450039  RH  096%=      5-min Rain = 0
KDO1 060516Z 29007KT 05/04 A3033 RMK A01 T00460039  RH  095%=      5-min Rain = 0
KDO1 060517Z 30007KT 05/04 A3033 RMK A01 T00460039  RH  095%=      5-min Rain = 0
KDO1 060518Z 29007KT 05/04 A3033 RMK A01 T00460039  RH  095%=      5-min Rain = 0
KDO1 060519Z 30007KT 05/04 A3033 RMK A01 T00470040  RH  095%=      5-min Rain = 0
KDO1 060520Z 30007KT 05/04 A3033 RMK A01 T00470039  RH  095%=      5-min Rain = 0
KDO1 060521Z 30007KT 05/04 A3033 RMK A01 T00470039  RH  095%=      5-min Rain = 0
KDO1 060522Z 30007KT 05/04 A3033 RMK A01 T00470039  RH  095%=      5-min Rain = 0
KDO1 060523Z 30007KT 05/04 A3033 RMK A01 T00480040  RH  095%=      5-min Rain = 0
KDO1 060524Z 30007KT 05/04 A3033 RMK A01 T00480041  RH  095%=      5-min Rain = 0
KDO1 060525Z 30007KT 05/04 A3033 RMK A01 T00500042  RH  095%=      5-min Rain = 0
KDO1 060526Z 30007KT 05/04 A3033 RMK A01 T00500041  RH  094%=      5-min Rain = 0
KDO1 060527Z 30007KT 05/04 A3033 RMK A01 T00500041  RH  094%=      5-min Rain = 0
KDO1 060528Z 30007KT 05/04 A3033 RMK A01 T00510043  RH  094%=      5-min Rain = 0
KDO1 060529Z 30007KT 05/04 A3033 RMK A01 T00510042  RH  094%=      5-min Rain = 0
KDO1 060530Z 30007KT 05/04 A3033 RMK A01 T00510043  RH  094%=      5-min Rain = 0
KDO1 060531Z 30007KT 05/05 A3033 RMK A01 T00530045  RH  094%=      5-min Rain = 0
KDO1 060532Z 30007KT 06/05 A3033 RMK A01 T00550045  RH  094%=      5-min Rain = 0
KDO1 060533Z 30007KT 06/05 A3033 RMK A01 T00550045  RH  093%=      5-min Rain = 0
KDO1 060534Z 30007KT 06/05 A3033 RMK A01 T00550045  RH  093%=      5-min Rain = 0
KDO1 060535Z 30007KT 06/04 A3033 RMK A01 T00550044  RH  093%=      5-min Rain = 0
KDO1 060536Z 30006KT 06/05 A3033 RMK A01 T00560045  RH  093%=      5-min Rain = 0
KDO1 060537Z 30006KT 06/05 A3033 RMK A01 T00560046  RH  093%=      5-min Rain = 0
KDO1 060538Z 30006KT 06/05 A3033 RMK A01 T00580047  RH  093%=      5-min Rain = 0
KDO1 060539Z 30006KT 06/05 A3033 RMK A01 T00580046  RH  092%=      5-min Rain = 0
KDO1 060540Z 30006KT 06/05 A3033 RMK A01 T00580047  RH  092%=      5-min Rain = 0
KDO1 060541Z 30006KT 06/05 A3033 RMK A01 T00590048  RH  092%=      5-min Rain = 0
KDO1 060542Z 30006KT 06/05 A3033 RMK A01 T00600048  RH  092%=      5-min Rain = 0
KDO1 060543Z 30006KT 06/05 A3033 RMK A01 T00600047  RH  092%=      5-min Rain = 0
KDO1 060544Z 30007KT 06/05 A3033 RMK A01 T00600047  RH  092%=      5-min Rain = 0
KDO1 060545Z 30007KT 06/05 A3033 RMK A01 T00600047  RH  091%=      5-min Rain = 0
KDO1 060546Z 30006KT 06/05 A3033 RMK A01 T00590047  RH  092%=      5-min Rain = 0
KDO1 060547Z 30006KT 06/05 A3033 RMK A01 T00590047  RH  092%=      5-min Rain = 0
KDO1 060548Z 30006KT 06/05 A3033 RMK A01 T00580046  RH  092%=      5-min Rain = 0
KDO1 060549Z 30006KT 06/05 A3033 RMK A01 T00580047  RH  092%=      5-min Rain = 0
KDO1 060550Z 30006KT 06/05 A3033 RMK A01 T00580047  RH  092%=      5-min Rain = 0
KDO1 060551Z 30006KT 06/05 A3033 RMK A01 T00580047  RH  093%=      5-min Rain = 0
KDO1 060552Z 30006KT 06/05 A3033 RMK A01 T00580047  RH  093%=      5-min Rain = 0
KDO1 060553Z 30006KT 06/05 A3033 RMK A01 T00580047  RH  093%=      5-min Rain = 0
KDO1 060554Z 30006KT 06/05 A3033 RMK A01 T00580047  RH  092%=      5-min Rain = 0
KDO1 060555Z 30007KT 06/05 A3033 RMK A01 T00580047  RH  093%=      5-min Rain = 0
KDO1 060556Z 30006KT 06/05 A3033 RMK A01 T00580047  RH  093%=      5-min Rain = 0
KDO1 060557Z 30007KT 06/05 A3033 RMK A01 T00580046  RH  092%=      5-min Rain = 0
KDO1 060558Z 30007KT 06/05 A3033 RMK A01 T00570046  RH  093%=      5-min Rain = 0
KDO1 060559Z 30007KT 06/05 A3033 RMK A01 T00580047  RH  093%=      5-min Rain = 0

Page generated in 0.0644 seconds.